<?xml version="1.0" encoding="UTF-8" standalone="no" ?>
<gpx xmlns="http://www.topografix.com/GPX/1/1" xmlns:xsi="http://www.w3.org/2001/XMLSchema-instance" xsi:schemaLocation="http://www.topografix.com/GPX/1/1 http://www.topografix.com/GPX/1/1/gpx.xsd" version="1.1" creator="VisuGPX - https://www.visugpx.com">
  <metadata>
    <name>3 jours en Beaufortain 2018</name>
    <desc><![CDATA[3 jours en Beaufortain 2018 depuis le refuge de La Balme]]></desc>
  </metadata>
  <trk>
    <name><![CDATA[LES PARS BALME]]></name>
    <trkseg>
      <trkpt lat="45.59175" lon="6.67094">
        <ele>1411.35</ele>
        <time>2018-02-06T07:47:42Z</time>
      </trkpt>
      <trkpt lat="45.59175" lon="6.67095">
        <ele>1411.35</ele>
        <time>2018-02-06T07:47:43Z</time>
      </trkpt>
      <trkpt lat="45.59177" lon="6.67092">
        <ele>1411.83</ele>
        <time>2018-02-06T07:48:01Z</time>
      </trkpt>
      <trkpt lat="45.59172" lon="6.67096">
        <ele>1411.35</ele>
        <time>2018-02-06T07:48:38Z</time>
      </trkpt>
      <trkpt lat="45.59176" lon="6.67094">
        <ele>1411.83</ele>
        <time>2018-02-06T07:49:11Z</time>
      </trkpt>
      <trkpt lat="45.59179" lon="6.67095">
        <ele>1413.28</ele>
        <time>2018-02-06T07:49:33Z</time>
      </trkpt>
      <trkpt lat="45.59179" lon="6.67095">
        <ele>1413.28</ele>
        <time>2018-02-06T07:49:48Z</time>
      </trkpt>
      <trkpt lat="45.59179" lon="6.67093">
        <ele>1413.28</ele>
        <time>2018-02-06T07:50:06Z</time>
      </trkpt>
      <trkpt lat="45.59177" lon="6.67093">
        <ele>1413.76</ele>
        <time>2018-02-06T07:50:24Z</time>
      </trkpt>
      <trkpt lat="45.59179" lon="6.67092">
        <ele>1413.76</ele>
        <time>2018-02-06T07:50:44Z</time>
      </trkpt>
      <trkpt lat="45.59179" lon="6.67092">
        <ele>1413.28</ele>
        <time>2018-02-06T07:51:00Z</time>
      </trkpt>
      <trkpt lat="45.59185" lon="6.67093">
        <ele>1413.28</ele>
        <time>2018-02-06T07:51:07Z</time>
      </trkpt>
      <trkpt lat="45.592" lon="6.67091">
        <ele>1414.24</ele>
        <time>2018-02-06T07:51:23Z</time>
      </trkpt>
      <trkpt lat="45.59212" lon="6.67085">
        <ele>1414.72</ele>
        <time>2018-02-06T07:51:39Z</time>
      </trkpt>
      <trkpt lat="45.59213" lon="6.67081">
        <ele>1414.72</ele>
        <time>2018-02-06T07:51:54Z</time>
      </trkpt>
      <trkpt lat="45.59214" lon="6.67081">
        <ele>1414.24</ele>
        <time>2018-02-06T07:52:20Z</time>
      </trkpt>
      <trkpt lat="45.59216" lon="6.6708">
        <ele>1413.76</ele>
        <time>2018-02-06T07:52:38Z</time>
      </trkpt>
      <trkpt lat="45.59216" lon="6.67078">
        <ele>1414.24</ele>
        <time>2018-02-06T07:52:55Z</time>
      </trkpt>
      <trkpt lat="45.59215" lon="6.67079">
        <ele>1414.72</ele>
        <time>2018-02-06T07:53:17Z</time>
      </trkpt>
      <trkpt lat="45.59216" lon="6.67078">
        <ele>1414.72</ele>
        <time>2018-02-06T07:53:30Z</time>
      </trkpt>
      <trkpt lat="45.59226" lon="6.67078">
        <ele>1414.72</ele>
        <time>2018-02-06T07:53:43Z</time>
      </trkpt>
      <trkpt lat="45.59239" lon="6.67078">
        <ele>1415.68</ele>
        <time>2018-02-06T07:53:57Z</time>
      </trkpt>
      <trkpt lat="45.59253" lon="6.67078">
        <ele>1414.72</ele>
        <time>2018-02-06T07:54:13Z</time>
      </trkpt>
      <trkpt lat="45.59262" lon="6.67075">
        <ele>1415.2</ele>
        <time>2018-02-06T07:54:26Z</time>
      </trkpt>
      <trkpt lat="45.59277" lon="6.67076">
        <ele>1415.68</ele>
        <time>2018-02-06T07:54:41Z</time>
      </trkpt>
      <trkpt lat="45.59292" lon="6.67074">
        <ele>1414.72</ele>
        <time>2018-02-06T07:54:58Z</time>
      </trkpt>
      <trkpt lat="45.59303" lon="6.67074">
        <ele>1415.68</ele>
        <time>2018-02-06T07:55:12Z</time>
      </trkpt>
      <trkpt lat="45.59316" lon="6.67073">
        <ele>1416.16</ele>
        <time>2018-02-06T07:55:26Z</time>
      </trkpt>
      <trkpt lat="45.59327" lon="6.67074">
        <ele>1416.64</ele>
        <time>2018-02-06T07:55:42Z</time>
      </trkpt>
      <trkpt lat="45.59335" lon="6.67078">
        <ele>1416.64</ele>
        <time>2018-02-06T07:55:53Z</time>
      </trkpt>
      <trkpt lat="45.59346" lon="6.67083">
        <ele>1416.64</ele>
        <time>2018-02-06T07:56:07Z</time>
      </trkpt>
      <trkpt lat="45.59347" lon="6.67083">
        <ele>1416.16</ele>
        <time>2018-02-06T07:56:08Z</time>
      </trkpt>
      <trkpt lat="45.59357" lon="6.67083">
        <ele>1416.16</ele>
        <time>2018-02-06T07:56:20Z</time>
      </trkpt>
      <trkpt lat="45.59368" lon="6.67081">
        <ele>1416.64</ele>
        <time>2018-02-06T07:56:32Z</time>
      </trkpt>
      <trkpt lat="45.5938" lon="6.67077">
        <ele>1416.64</ele>
        <time>2018-02-06T07:56:45Z</time>
      </trkpt>
      <trkpt lat="45.59391" lon="6.67074">
        <ele>1417.12</ele>
        <time>2018-02-06T07:56:57Z</time>
      </trkpt>
      <trkpt lat="45.59403" lon="6.67066">
        <ele>1418.08</ele>
        <time>2018-02-06T07:57:13Z</time>
      </trkpt>
      <trkpt lat="45.59414" lon="6.67056">
        <ele>1419.04</ele>
        <time>2018-02-06T07:57:30Z</time>
      </trkpt>
      <trkpt lat="45.59425" lon="6.67047">
        <ele>1420</ele>
        <time>2018-02-06T07:57:46Z</time>
      </trkpt>
      <trkpt lat="45.59437" lon="6.6704">
        <ele>1420.49</ele>
        <time>2018-02-06T07:58:02Z</time>
      </trkpt>
      <trkpt lat="45.59448" lon="6.67038">
        <ele>1421.45</ele>
        <time>2018-02-06T07:58:18Z</time>
      </trkpt>
      <trkpt lat="45.59458" lon="6.67033">
        <ele>1422.89</ele>
        <time>2018-02-06T07:58:33Z</time>
      </trkpt>
      <trkpt lat="45.59467" lon="6.67028">
        <ele>1423.85</ele>
        <time>2018-02-06T07:58:47Z</time>
      </trkpt>
      <trkpt lat="45.59477" lon="6.67019">
        <ele>1423.85</ele>
        <time>2018-02-06T07:59:03Z</time>
      </trkpt>
      <trkpt lat="45.59488" lon="6.6701">
        <ele>1424.81</ele>
        <time>2018-02-06T07:59:20Z</time>
      </trkpt>
      <trkpt lat="45.59499" lon="6.67003">
        <ele>1425.29</ele>
        <time>2018-02-06T07:59:37Z</time>
      </trkpt>
      <trkpt lat="45.59507" lon="6.66997">
        <ele>1425.77</ele>
        <time>2018-02-06T07:59:50Z</time>
      </trkpt>
      <trkpt lat="45.59518" lon="6.66994">
        <ele>1426.25</ele>
        <time>2018-02-06T08:00:06Z</time>
      </trkpt>
      <trkpt lat="45.59527" lon="6.66994">
        <ele>1427.21</ele>
        <time>2018-02-06T08:00:19Z</time>
      </trkpt>
      <trkpt lat="45.59539" lon="6.66995">
        <ele>1427.7</ele>
        <time>2018-02-06T08:00:35Z</time>
      </trkpt>
      <trkpt lat="45.59549" lon="6.66994">
        <ele>1428.66</ele>
        <time>2018-02-06T08:00:49Z</time>
      </trkpt>
      <trkpt lat="45.5956" lon="6.66997">
        <ele>1429.62</ele>
        <time>2018-02-06T08:01:06Z</time>
      </trkpt>
      <trkpt lat="45.5957" lon="6.66996">
        <ele>1430.1</ele>
        <time>2018-02-06T08:01:20Z</time>
      </trkpt>
      <trkpt lat="45.59581" lon="6.66996">
        <ele>1431.54</ele>
        <time>2018-02-06T08:01:35Z</time>
      </trkpt>
      <trkpt lat="45.59592" lon="6.66998">
        <ele>1432.5</ele>
        <time>2018-02-06T08:01:50Z</time>
      </trkpt>
      <trkpt lat="45.59602" lon="6.67003">
        <ele>1432.98</ele>
        <time>2018-02-06T08:02:05Z</time>
      </trkpt>
      <trkpt lat="45.59613" lon="6.67009">
        <ele>1433.46</ele>
        <time>2018-02-06T08:02:21Z</time>
      </trkpt>
      <trkpt lat="45.59616" lon="6.6701">
        <ele>1434.42</ele>
        <time>2018-02-06T08:02:26Z</time>
      </trkpt>
      <trkpt lat="45.59624" lon="6.67013">
        <ele>1434.91</ele>
        <time>2018-02-06T08:02:38Z</time>
      </trkpt>
      <trkpt lat="45.59635" lon="6.67012">
        <ele>1435.87</ele>
        <time>2018-02-06T08:02:54Z</time>
      </trkpt>
      <trkpt lat="45.59642" lon="6.67">
        <ele>1436.83</ele>
        <time>2018-02-06T08:03:08Z</time>
      </trkpt>
      <trkpt lat="45.59642" lon="6.66986">
        <ele>1438.27</ele>
        <time>2018-02-06T08:03:21Z</time>
      </trkpt>
      <trkpt lat="45.59639" lon="6.66972">
        <ele>1438.75</ele>
        <time>2018-02-06T08:03:36Z</time>
      </trkpt>
      <trkpt lat="45.59634" lon="6.66959">
        <ele>1440.19</ele>
        <time>2018-02-06T08:03:50Z</time>
      </trkpt>
      <trkpt lat="45.59633" lon="6.66942">
        <ele>1441.15</ele>
        <time>2018-02-06T08:04:05Z</time>
      </trkpt>
      <trkpt lat="45.59634" lon="6.66925">
        <ele>1442.6</ele>
        <time>2018-02-06T08:04:20Z</time>
      </trkpt>
      <trkpt lat="45.59636" lon="6.6691">
        <ele>1444.52</ele>
        <time>2018-02-06T08:04:35Z</time>
      </trkpt>
      <trkpt lat="45.59636" lon="6.66892">
        <ele>1444.52</ele>
        <time>2018-02-06T08:04:51Z</time>
      </trkpt>
      <trkpt lat="45.59638" lon="6.66874">
        <ele>1445.96</ele>
        <time>2018-02-06T08:05:08Z</time>
      </trkpt>
      <trkpt lat="45.59638" lon="6.66859">
        <ele>1447.88</ele>
        <time>2018-02-06T08:05:22Z</time>
      </trkpt>
      <trkpt lat="45.59638" lon="6.66842">
        <ele>1448.84</ele>
        <time>2018-02-06T08:05:38Z</time>
      </trkpt>
      <trkpt lat="45.59632" lon="6.66832">
        <ele>1449.81</ele>
        <time>2018-02-06T08:05:51Z</time>
      </trkpt>
      <trkpt lat="45.59623" lon="6.66821">
        <ele>1451.25</ele>
        <time>2018-02-06T08:06:06Z</time>
      </trkpt>
      <trkpt lat="45.59615" lon="6.6681">
        <ele>1451.73</ele>
        <time>2018-02-06T08:06:20Z</time>
      </trkpt>
      <trkpt lat="45.59604" lon="6.66797">
        <ele>1453.65</ele>
        <time>2018-02-06T08:06:39Z</time>
      </trkpt>
      <trkpt lat="45.59597" lon="6.66783">
        <ele>1454.61</ele>
        <time>2018-02-06T08:06:54Z</time>
      </trkpt>
      <trkpt lat="45.59603" lon="6.66775">
        <ele>1456.53</ele>
        <time>2018-02-06T08:07:07Z</time>
      </trkpt>
      <trkpt lat="45.59612" lon="6.66775">
        <ele>1457.5</ele>
        <time>2018-02-06T08:07:20Z</time>
      </trkpt>
      <trkpt lat="45.59624" lon="6.66774">
        <ele>1458.94</ele>
        <time>2018-02-06T08:07:37Z</time>
      </trkpt>
      <trkpt lat="45.59638" lon="6.66772">
        <ele>1460.86</ele>
        <time>2018-02-06T08:07:55Z</time>
      </trkpt>
      <trkpt lat="45.5965" lon="6.66771">
        <ele>1461.82</ele>
        <time>2018-02-06T08:08:11Z</time>
      </trkpt>
      <trkpt lat="45.59662" lon="6.6677">
        <ele>1463.74</ele>
        <time>2018-02-06T08:08:27Z</time>
      </trkpt>
      <trkpt lat="45.59673" lon="6.66771">
        <ele>1464.23</ele>
        <time>2018-02-06T08:08:41Z</time>
      </trkpt>
      <trkpt lat="45.59682" lon="6.66779">
        <ele>1465.67</ele>
        <time>2018-02-06T08:08:54Z</time>
      </trkpt>
      <trkpt lat="45.59692" lon="6.66786">
        <ele>1466.63</ele>
        <time>2018-02-06T08:09:09Z</time>
      </trkpt>
      <trkpt lat="45.59702" lon="6.66794">
        <ele>1467.59</ele>
        <time>2018-02-06T08:09:22Z</time>
      </trkpt>
      <trkpt lat="45.59706" lon="6.66798">
        <ele>1468.55</ele>
        <time>2018-02-06T08:09:28Z</time>
      </trkpt>
      <trkpt lat="45.59717" lon="6.66806">
        <ele>1469.51</ele>
        <time>2018-02-06T08:09:44Z</time>
      </trkpt>
      <trkpt lat="45.59724" lon="6.66815">
        <ele>1470.47</ele>
        <time>2018-02-06T08:09:56Z</time>
      </trkpt>
      <trkpt lat="45.5973" lon="6.66828">
        <ele>1471.92</ele>
        <time>2018-02-06T08:10:11Z</time>
      </trkpt>
      <trkpt lat="45.59733" lon="6.66833">
        <ele>1472.88</ele>
        <time>2018-02-06T08:10:17Z</time>
      </trkpt>
      <trkpt lat="45.59733" lon="6.66853">
        <ele>1473.36</ele>
        <time>2018-02-06T08:10:34Z</time>
      </trkpt>
      <trkpt lat="45.59734" lon="6.66874">
        <ele>1475.28</ele>
        <time>2018-02-06T08:10:52Z</time>
      </trkpt>
      <trkpt lat="45.59735" lon="6.66892">
        <ele>1476.24</ele>
        <time>2018-02-06T08:11:06Z</time>
      </trkpt>
      <trkpt lat="45.59735" lon="6.66905">
        <ele>1477.68</ele>
        <time>2018-02-06T08:11:19Z</time>
      </trkpt>
      <trkpt lat="45.59737" lon="6.66921">
        <ele>1478.65</ele>
        <time>2018-02-06T08:11:35Z</time>
      </trkpt>
      <trkpt lat="45.59742" lon="6.66935">
        <ele>1480.09</ele>
        <time>2018-02-06T08:11:50Z</time>
      </trkpt>
      <trkpt lat="45.59744" lon="6.66938">
        <ele>1480.09</ele>
        <time>2018-02-06T08:11:53Z</time>
      </trkpt>
      <trkpt lat="45.59754" lon="6.66949">
        <ele>1481.53</ele>
        <time>2018-02-06T08:12:11Z</time>
      </trkpt>
      <trkpt lat="45.59766" lon="6.6695">
        <ele>1482.97</ele>
        <time>2018-02-06T08:12:27Z</time>
      </trkpt>
      <trkpt lat="45.59777" lon="6.66953">
        <ele>1484.89</ele>
        <time>2018-02-06T08:12:42Z</time>
      </trkpt>
      <trkpt lat="45.59782" lon="6.66952">
        <ele>1484.89</ele>
        <time>2018-02-06T08:12:48Z</time>
      </trkpt>
      <trkpt lat="45.59794" lon="6.6695">
        <ele>1486.34</ele>
        <time>2018-02-06T08:13:04Z</time>
      </trkpt>
      <trkpt lat="45.59807" lon="6.66949">
        <ele>1487.3</ele>
        <time>2018-02-06T08:13:20Z</time>
      </trkpt>
      <trkpt lat="45.59815" lon="6.66947">
        <ele>1487.78</ele>
        <time>2018-02-06T08:13:30Z</time>
      </trkpt>
      <trkpt lat="45.59828" lon="6.66946">
        <ele>1489.22</ele>
        <time>2018-02-06T08:13:46Z</time>
      </trkpt>
      <trkpt lat="45.5984" lon="6.66944">
        <ele>1490.66</ele>
        <time>2018-02-06T08:14:01Z</time>
      </trkpt>
      <trkpt lat="45.59855" lon="6.66942">
        <ele>1492.58</ele>
        <time>2018-02-06T08:14:19Z</time>
      </trkpt>
      <trkpt lat="45.59867" lon="6.66945">
        <ele>1493.55</ele>
        <time>2018-02-06T08:14:36Z</time>
      </trkpt>
      <trkpt lat="45.59879" lon="6.66952">
        <ele>1495.47</ele>
        <time>2018-02-06T08:14:51Z</time>
      </trkpt>
      <trkpt lat="45.59888" lon="6.66964">
        <ele>1496.43</ele>
        <time>2018-02-06T08:15:06Z</time>
      </trkpt>
      <trkpt lat="45.59889" lon="6.66966">
        <ele>1496.43</ele>
        <time>2018-02-06T08:15:09Z</time>
      </trkpt>
      <trkpt lat="45.59899" lon="6.66976">
        <ele>1496.91</ele>
        <time>2018-02-06T08:15:23Z</time>
      </trkpt>
      <trkpt lat="45.59904" lon="6.66985">
        <ele>1497.87</ele>
        <time>2018-02-06T08:15:34Z</time>
      </trkpt>
      <trkpt lat="45.59914" lon="6.66997">
        <ele>1499.31</ele>
        <time>2018-02-06T08:15:50Z</time>
      </trkpt>
      <trkpt lat="45.59926" lon="6.67005">
        <ele>1500.76</ele>
        <time>2018-02-06T08:16:06Z</time>
      </trkpt>
      <trkpt lat="45.59937" lon="6.67012">
        <ele>1502.2</ele>
        <time>2018-02-06T08:16:20Z</time>
      </trkpt>
      <trkpt lat="45.5994" lon="6.67014">
        <ele>1503.16</ele>
        <time>2018-02-06T08:16:26Z</time>
      </trkpt>
      <trkpt lat="45.59951" lon="6.67017">
        <ele>1504.6</ele>
        <time>2018-02-06T08:16:41Z</time>
      </trkpt>
      <trkpt lat="45.5996" lon="6.67019">
        <ele>1505.56</ele>
        <time>2018-02-06T08:16:55Z</time>
      </trkpt>
      <trkpt lat="45.59972" lon="6.67019">
        <ele>1507</ele>
        <time>2018-02-06T08:17:10Z</time>
      </trkpt>
      <trkpt lat="45.59976" lon="6.6702">
        <ele>1507.48</ele>
        <time>2018-02-06T08:17:16Z</time>
      </trkpt>
      <trkpt lat="45.59988" lon="6.6702">
        <ele>1508.93</ele>
        <time>2018-02-06T08:17:32Z</time>
      </trkpt>
      <trkpt lat="45.59999" lon="6.67022">
        <ele>1509.89</ele>
        <time>2018-02-06T08:17:46Z</time>
      </trkpt>
      <trkpt lat="45.6001" lon="6.67026">
        <ele>1511.33</ele>
        <time>2018-02-06T08:17:58Z</time>
      </trkpt>
      <trkpt lat="45.60023" lon="6.67032">
        <ele>1512.77</ele>
        <time>2018-02-06T08:18:13Z</time>
      </trkpt>
      <trkpt lat="45.60025" lon="6.67033">
        <ele>1513.25</ele>
        <time>2018-02-06T08:18:16Z</time>
      </trkpt>
      <trkpt lat="45.60035" lon="6.67042">
        <ele>1514.69</ele>
        <time>2018-02-06T08:18:30Z</time>
      </trkpt>
      <trkpt lat="45.60042" lon="6.67054">
        <ele>1515.18</ele>
        <time>2018-02-06T08:18:44Z</time>
      </trkpt>
      <trkpt lat="45.60049" lon="6.67062">
        <ele>1516.14</ele>
        <time>2018-02-06T08:18:54Z</time>
      </trkpt>
      <trkpt lat="45.6005" lon="6.67064">
        <ele>1516.62</ele>
        <time>2018-02-06T08:18:56Z</time>
      </trkpt>
      <trkpt lat="45.60055" lon="6.67078">
        <ele>1517.58</ele>
        <time>2018-02-06T08:19:11Z</time>
      </trkpt>
      <trkpt lat="45.60055" lon="6.67094">
        <ele>1518.54</ele>
        <time>2018-02-06T08:19:24Z</time>
      </trkpt>
      <trkpt lat="45.60058" lon="6.67112">
        <ele>1519.98</ele>
        <time>2018-02-06T08:19:39Z</time>
      </trkpt>
      <trkpt lat="45.6006" lon="6.67123">
        <ele>1520.46</ele>
        <time>2018-02-06T08:19:48Z</time>
      </trkpt>
      <trkpt lat="45.60065" lon="6.67133">
        <ele>1521.9</ele>
        <time>2018-02-06T08:20:00Z</time>
      </trkpt>
      <trkpt lat="45.60068" lon="6.67137">
        <ele>1522.39</ele>
        <time>2018-02-06T08:20:12Z</time>
      </trkpt>
      <trkpt lat="45.60071" lon="6.67138">
        <ele>1522.87</ele>
        <time>2018-02-06T08:20:23Z</time>
      </trkpt>
      <trkpt lat="45.60078" lon="6.67124">
        <ele>1525.27</ele>
        <time>2018-02-06T08:20:40Z</time>
      </trkpt>
      <trkpt lat="45.60083" lon="6.67112">
        <ele>1527.19</ele>
        <time>2018-02-06T08:20:55Z</time>
      </trkpt>
      <trkpt lat="45.60091" lon="6.67116">
        <ele>1529.11</ele>
        <time>2018-02-06T08:21:12Z</time>
      </trkpt>
      <trkpt lat="45.60097" lon="6.67127">
        <ele>1532</ele>
        <time>2018-02-06T08:21:27Z</time>
      </trkpt>
      <trkpt lat="45.60102" lon="6.67136">
        <ele>1533.92</ele>
        <time>2018-02-06T08:21:44Z</time>
      </trkpt>
      <trkpt lat="45.60112" lon="6.67125">
        <ele>1535.84</ele>
        <time>2018-02-06T08:22:01Z</time>
      </trkpt>
      <trkpt lat="45.6012" lon="6.67123">
        <ele>1537.77</ele>
        <time>2018-02-06T08:22:15Z</time>
      </trkpt>
      <trkpt lat="45.60127" lon="6.67134">
        <ele>1539.69</ele>
        <time>2018-02-06T08:22:32Z</time>
      </trkpt>
      <trkpt lat="45.60136" lon="6.67144">
        <ele>1541.61</ele>
        <time>2018-02-06T08:22:48Z</time>
      </trkpt>
      <trkpt lat="45.60144" lon="6.67132">
        <ele>1544.01</ele>
        <time>2018-02-06T08:23:04Z</time>
      </trkpt>
      <trkpt lat="45.60153" lon="6.67123">
        <ele>1546.42</ele>
        <time>2018-02-06T08:23:21Z</time>
      </trkpt>
      <trkpt lat="45.60161" lon="6.67119">
        <ele>1548.34</ele>
        <time>2018-02-06T08:23:35Z</time>
      </trkpt>
      <trkpt lat="45.60169" lon="6.67124">
        <ele>1550.26</ele>
        <time>2018-02-06T08:23:50Z</time>
      </trkpt>
      <trkpt lat="45.60177" lon="6.67126">
        <ele>1552.19</ele>
        <time>2018-02-06T08:24:04Z</time>
      </trkpt>
      <trkpt lat="45.60182" lon="6.67134">
        <ele>1554.59</ele>
        <time>2018-02-06T08:24:19Z</time>
      </trkpt>
      <trkpt lat="45.6019" lon="6.67126">
        <ele>1555.55</ele>
        <time>2018-02-06T08:24:32Z</time>
      </trkpt>
      <trkpt lat="45.60196" lon="6.67129">
        <ele>1557.95</ele>
        <time>2018-02-06T08:24:45Z</time>
      </trkpt>
      <trkpt lat="45.60203" lon="6.67126">
        <ele>1559.4</ele>
        <time>2018-02-06T08:24:58Z</time>
      </trkpt>
      <trkpt lat="45.60208" lon="6.67131">
        <ele>1560.84</ele>
        <time>2018-02-06T08:25:10Z</time>
      </trkpt>
      <trkpt lat="45.60215" lon="6.67132">
        <ele>1562.76</ele>
        <time>2018-02-06T08:25:23Z</time>
      </trkpt>
      <trkpt lat="45.60223" lon="6.67124">
        <ele>1564.68</ele>
        <time>2018-02-06T08:25:38Z</time>
      </trkpt>
      <trkpt lat="45.60229" lon="6.67121">
        <ele>1567.09</ele>
        <time>2018-02-06T08:25:52Z</time>
      </trkpt>
      <trkpt lat="45.60234" lon="6.67121">
        <ele>1569.01</ele>
        <time>2018-02-06T08:26:04Z</time>
      </trkpt>
      <trkpt lat="45.6024" lon="6.6713">
        <ele>1571.41</ele>
        <time>2018-02-06T08:26:19Z</time>
      </trkpt>
      <trkpt lat="45.60248" lon="6.67141">
        <ele>1572.85</ele>
        <time>2018-02-06T08:26:37Z</time>
      </trkpt>
      <trkpt lat="45.60256" lon="6.67138">
        <ele>1575.74</ele>
        <time>2018-02-06T08:26:53Z</time>
      </trkpt>
      <trkpt lat="45.60257" lon="6.67151">
        <ele>1577.18</ele>
        <time>2018-02-06T08:27:06Z</time>
      </trkpt>
      <trkpt lat="45.60259" lon="6.67165">
        <ele>1578.62</ele>
        <time>2018-02-06T08:27:21Z</time>
      </trkpt>
      <trkpt lat="45.6026" lon="6.67166">
        <ele>1579.1</ele>
        <time>2018-02-06T08:27:23Z</time>
      </trkpt>
      <trkpt lat="45.60264" lon="6.67178">
        <ele>1579.58</ele>
        <time>2018-02-06T08:27:33Z</time>
      </trkpt>
      <trkpt lat="45.60273" lon="6.67191">
        <ele>1581.03</ele>
        <time>2018-02-06T08:27:49Z</time>
      </trkpt>
      <trkpt lat="45.60283" lon="6.67208">
        <ele>1581.99</ele>
        <time>2018-02-06T08:28:05Z</time>
      </trkpt>
      <trkpt lat="45.60295" lon="6.67219">
        <ele>1582.95</ele>
        <time>2018-02-06T08:28:22Z</time>
      </trkpt>
      <trkpt lat="45.60306" lon="6.67229">
        <ele>1584.39</ele>
        <time>2018-02-06T08:28:38Z</time>
      </trkpt>
      <trkpt lat="45.60319" lon="6.67237">
        <ele>1586.31</ele>
        <time>2018-02-06T08:28:54Z</time>
      </trkpt>
      <trkpt lat="45.6033" lon="6.67245">
        <ele>1587.27</ele>
        <time>2018-02-06T08:29:09Z</time>
      </trkpt>
      <trkpt lat="45.60342" lon="6.67253">
        <ele>1588.72</ele>
        <time>2018-02-06T08:29:24Z</time>
      </trkpt>
      <trkpt lat="45.60355" lon="6.67259">
        <ele>1589.2</ele>
        <time>2018-02-06T08:29:39Z</time>
      </trkpt>
      <trkpt lat="45.60369" lon="6.67261">
        <ele>1589.2</ele>
        <time>2018-02-06T08:29:54Z</time>
      </trkpt>
      <trkpt lat="45.60379" lon="6.67268">
        <ele>1591.12</ele>
        <time>2018-02-06T08:30:08Z</time>
      </trkpt>
      <trkpt lat="45.60392" lon="6.67274">
        <ele>1593.04</ele>
        <time>2018-02-06T08:30:24Z</time>
      </trkpt>
      <trkpt lat="45.60406" lon="6.67277">
        <ele>1594.48</ele>
        <time>2018-02-06T08:30:40Z</time>
      </trkpt>
      <trkpt lat="45.60417" lon="6.67277">
        <ele>1596.41</ele>
        <time>2018-02-06T08:30:52Z</time>
      </trkpt>
      <trkpt lat="45.60428" lon="6.6728">
        <ele>1596.41</ele>
        <time>2018-02-06T08:31:06Z</time>
      </trkpt>
      <trkpt lat="45.60441" lon="6.6728">
        <ele>1597.85</ele>
        <time>2018-02-06T08:31:22Z</time>
      </trkpt>
      <trkpt lat="45.60449" lon="6.67282">
        <ele>1598.33</ele>
        <time>2018-02-06T08:31:36Z</time>
      </trkpt>
      <trkpt lat="45.6046" lon="6.67288">
        <ele>1597.85</ele>
        <time>2018-02-06T08:31:50Z</time>
      </trkpt>
      <trkpt lat="45.60472" lon="6.67295">
        <ele>1599.29</ele>
        <time>2018-02-06T08:32:05Z</time>
      </trkpt>
      <trkpt lat="45.60478" lon="6.67299">
        <ele>1600.73</ele>
        <time>2018-02-06T08:32:12Z</time>
      </trkpt>
      <trkpt lat="45.60489" lon="6.6731">
        <ele>1602.17</ele>
        <time>2018-02-06T08:32:28Z</time>
      </trkpt>
      <trkpt lat="45.605" lon="6.67323">
        <ele>1603.62</ele>
        <time>2018-02-06T08:32:45Z</time>
      </trkpt>
      <trkpt lat="45.6051" lon="6.67333">
        <ele>1605.06</ele>
        <time>2018-02-06T08:33:00Z</time>
      </trkpt>
      <trkpt lat="45.60519" lon="6.67341">
        <ele>1606.5</ele>
        <time>2018-02-06T08:33:13Z</time>
      </trkpt>
      <trkpt lat="45.60528" lon="6.67349">
        <ele>1606.98</ele>
        <time>2018-02-06T08:33:27Z</time>
      </trkpt>
      <trkpt lat="45.60539" lon="6.67358">
        <ele>1607.94</ele>
        <time>2018-02-06T08:33:42Z</time>
      </trkpt>
      <trkpt lat="45.6055" lon="6.6737">
        <ele>1609.86</ele>
        <time>2018-02-06T08:33:57Z</time>
      </trkpt>
      <trkpt lat="45.60559" lon="6.67378">
        <ele>1610.35</ele>
        <time>2018-02-06T08:34:10Z</time>
      </trkpt>
      <trkpt lat="45.6057" lon="6.67386">
        <ele>1611.31</ele>
        <time>2018-02-06T08:34:24Z</time>
      </trkpt>
      <trkpt lat="45.60572" lon="6.67386">
        <ele>1611.79</ele>
        <time>2018-02-06T08:34:35Z</time>
      </trkpt>
      <trkpt lat="45.60571" lon="6.67384">
        <ele>1610.83</ele>
        <time>2018-02-06T08:34:46Z</time>
      </trkpt>
      <trkpt lat="45.60576" lon="6.67387">
        <ele>1611.79</ele>
        <time>2018-02-06T08:35:04Z</time>
      </trkpt>
      <trkpt lat="45.60584" lon="6.6739">
        <ele>1612.75</ele>
        <time>2018-02-06T08:35:18Z</time>
      </trkpt>
      <trkpt lat="45.60596" lon="6.67393">
        <ele>1613.23</ele>
        <time>2018-02-06T08:35:32Z</time>
      </trkpt>
      <trkpt lat="45.60608" lon="6.67396">
        <ele>1616.11</ele>
        <time>2018-02-06T08:35:47Z</time>
      </trkpt>
      <trkpt lat="45.60618" lon="6.67392">
        <ele>1616.59</ele>
        <time>2018-02-06T08:36:01Z</time>
      </trkpt>
      <trkpt lat="45.60622" lon="6.6739">
        <ele>1618.04</ele>
        <time>2018-02-06T08:36:07Z</time>
      </trkpt>
      <trkpt lat="45.60634" lon="6.67386">
        <ele>1617.56</ele>
        <time>2018-02-06T08:36:22Z</time>
      </trkpt>
      <trkpt lat="45.60643" lon="6.67385">
        <ele>1617.56</ele>
        <time>2018-02-06T08:36:36Z</time>
      </trkpt>
      <trkpt lat="45.60654" lon="6.67387">
        <ele>1619</ele>
        <time>2018-02-06T08:36:50Z</time>
      </trkpt>
      <trkpt lat="45.60663" lon="6.67393">
        <ele>1618.04</ele>
        <time>2018-02-06T08:37:03Z</time>
      </trkpt>
      <trkpt lat="45.6067" lon="6.67397">
        <ele>1619.96</ele>
        <time>2018-02-06T08:37:15Z</time>
      </trkpt>
      <trkpt lat="45.60681" lon="6.67408">
        <ele>1620.44</ele>
        <time>2018-02-06T08:37:28Z</time>
      </trkpt>
      <trkpt lat="45.6069" lon="6.67419">
        <ele>1622.36</ele>
        <time>2018-02-06T08:37:44Z</time>
      </trkpt>
      <trkpt lat="45.60695" lon="6.67426">
        <ele>1622.36</ele>
        <time>2018-02-06T08:37:53Z</time>
      </trkpt>
      <trkpt lat="45.60705" lon="6.67439">
        <ele>1623.32</ele>
        <time>2018-02-06T08:38:10Z</time>
      </trkpt>
      <trkpt lat="45.60715" lon="6.67447">
        <ele>1624.77</ele>
        <time>2018-02-06T08:38:26Z</time>
      </trkpt>
      <trkpt lat="45.60725" lon="6.6746">
        <ele>1625.73</ele>
        <time>2018-02-06T08:38:41Z</time>
      </trkpt>
      <trkpt lat="45.60735" lon="6.67471">
        <ele>1627.17</ele>
        <time>2018-02-06T08:38:56Z</time>
      </trkpt>
      <trkpt lat="45.6074" lon="6.67474">
        <ele>1628.13</ele>
        <time>2018-02-06T08:39:07Z</time>
      </trkpt>
      <trkpt lat="45.6075" lon="6.67478">
        <ele>1629.57</ele>
        <time>2018-02-06T08:39:22Z</time>
      </trkpt>
      <trkpt lat="45.6076" lon="6.67483">
        <ele>1630.05</ele>
        <time>2018-02-06T08:39:35Z</time>
      </trkpt>
      <trkpt lat="45.60772" lon="6.6749">
        <ele>1631.01</ele>
        <time>2018-02-06T08:39:51Z</time>
      </trkpt>
      <trkpt lat="45.60774" lon="6.67491">
        <ele>1631.01</ele>
        <time>2018-02-06T08:39:53Z</time>
      </trkpt>
      <trkpt lat="45.60779" lon="6.67494">
        <ele>1629.57</ele>
        <time>2018-02-06T08:40:00Z</time>
      </trkpt>
      <trkpt lat="45.60781" lon="6.67494">
        <ele>1630.53</ele>
        <time>2018-02-06T08:40:02Z</time>
      </trkpt>
      <trkpt lat="45.60797" lon="6.67499">
        <ele>1631.01</ele>
        <time>2018-02-06T08:40:18Z</time>
      </trkpt>
      <trkpt lat="45.608" lon="6.67499">
        <ele>1632.46</ele>
        <time>2018-02-06T08:40:21Z</time>
      </trkpt>
      <trkpt lat="45.60814" lon="6.67503">
        <ele>1631.98</ele>
        <time>2018-02-06T08:40:38Z</time>
      </trkpt>
      <trkpt lat="45.60829" lon="6.67507">
        <ele>1632.94</ele>
        <time>2018-02-06T08:40:54Z</time>
      </trkpt>
      <trkpt lat="45.60838" lon="6.67512">
        <ele>1632.94</ele>
        <time>2018-02-06T08:41:03Z</time>
      </trkpt>
      <trkpt lat="45.60849" lon="6.67519">
        <ele>1633.9</ele>
        <time>2018-02-06T08:41:17Z</time>
      </trkpt>
      <trkpt lat="45.60853" lon="6.67521">
        <ele>1633.42</ele>
        <time>2018-02-06T08:41:21Z</time>
      </trkpt>
      <trkpt lat="45.60865" lon="6.67527">
        <ele>1632.94</ele>
        <time>2018-02-06T08:41:35Z</time>
      </trkpt>
      <trkpt lat="45.60878" lon="6.67535">
        <ele>1633.9</ele>
        <time>2018-02-06T08:41:49Z</time>
      </trkpt>
      <trkpt lat="45.60889" lon="6.67541">
        <ele>1634.86</ele>
        <time>2018-02-06T08:42:02Z</time>
      </trkpt>
      <trkpt lat="45.60901" lon="6.67546">
        <ele>1635.34</ele>
        <time>2018-02-06T08:42:15Z</time>
      </trkpt>
      <trkpt lat="45.60906" lon="6.67549">
        <ele>1634.38</ele>
        <time>2018-02-06T08:42:21Z</time>
      </trkpt>
      <trkpt lat="45.60918" lon="6.67557">
        <ele>1634.38</ele>
        <time>2018-02-06T08:42:35Z</time>
      </trkpt>
      <trkpt lat="45.6093" lon="6.67564">
        <ele>1635.82</ele>
        <time>2018-02-06T08:42:51Z</time>
      </trkpt>
      <trkpt lat="45.60942" lon="6.67573">
        <ele>1635.34</ele>
        <time>2018-02-06T08:43:05Z</time>
      </trkpt>
      <trkpt lat="45.60943" lon="6.67574">
        <ele>1635.34</ele>
        <time>2018-02-06T08:43:06Z</time>
      </trkpt>
      <trkpt lat="45.60951" lon="6.67579">
        <ele>1634.38</ele>
        <time>2018-02-06T08:43:15Z</time>
      </trkpt>
      <trkpt lat="45.60963" lon="6.67589">
        <ele>1633.9</ele>
        <time>2018-02-06T08:43:31Z</time>
      </trkpt>
      <trkpt lat="45.60974" lon="6.67601">
        <ele>1633.9</ele>
        <time>2018-02-06T08:43:45Z</time>
      </trkpt>
      <trkpt lat="45.60986" lon="6.67617">
        <ele>1634.38</ele>
        <time>2018-02-06T08:44:01Z</time>
      </trkpt>
      <trkpt lat="45.60993" lon="6.67628">
        <ele>1634.38</ele>
        <time>2018-02-06T08:44:14Z</time>
      </trkpt>
      <trkpt lat="45.61003" lon="6.6764">
        <ele>1635.82</ele>
        <time>2018-02-06T08:44:31Z</time>
      </trkpt>
      <trkpt lat="45.61009" lon="6.67647">
        <ele>1636.78</ele>
        <time>2018-02-06T08:44:39Z</time>
      </trkpt>
      <trkpt lat="45.61018" lon="6.67652">
        <ele>1638.7</ele>
        <time>2018-02-06T08:44:52Z</time>
      </trkpt>
      <trkpt lat="45.61027" lon="6.67657">
        <ele>1639.67</ele>
        <time>2018-02-06T08:45:06Z</time>
      </trkpt>
      <trkpt lat="45.61031" lon="6.67661">
        <ele>1640.63</ele>
        <time>2018-02-06T08:45:11Z</time>
      </trkpt>
      <trkpt lat="45.61037" lon="6.67664">
        <ele>1638.7</ele>
        <time>2018-02-06T08:45:18Z</time>
      </trkpt>
      <trkpt lat="45.61037" lon="6.67664">
        <ele>1639.19</ele>
        <time>2018-02-06T08:45:19Z</time>
      </trkpt>
      <trkpt lat="45.61049" lon="6.67668">
        <ele>1641.11</ele>
        <time>2018-02-06T08:45:32Z</time>
      </trkpt>
      <trkpt lat="45.61061" lon="6.67671">
        <ele>1640.63</ele>
        <time>2018-02-06T08:45:47Z</time>
      </trkpt>
      <trkpt lat="45.61074" lon="6.67673">
        <ele>1640.63</ele>
        <time>2018-02-06T08:46:03Z</time>
      </trkpt>
      <trkpt lat="45.61086" lon="6.67671">
        <ele>1642.07</ele>
        <time>2018-02-06T08:46:18Z</time>
      </trkpt>
      <trkpt lat="45.61098" lon="6.67671">
        <ele>1642.55</ele>
        <time>2018-02-06T08:46:33Z</time>
      </trkpt>
      <trkpt lat="45.61109" lon="6.67677">
        <ele>1644.47</ele>
        <time>2018-02-06T08:46:47Z</time>
      </trkpt>
      <trkpt lat="45.61116" lon="6.67676">
        <ele>1647.36</ele>
        <time>2018-02-06T08:46:58Z</time>
      </trkpt>
      <trkpt lat="45.61117" lon="6.67675">
        <ele>1647.84</ele>
        <time>2018-02-06T08:46:59Z</time>
      </trkpt>
      <trkpt lat="45.61119" lon="6.67675">
        <ele>1645.91</ele>
        <time>2018-02-06T08:47:03Z</time>
      </trkpt>
      <trkpt lat="45.61122" lon="6.67678">
        <ele>1644.47</ele>
        <time>2018-02-06T08:47:07Z</time>
      </trkpt>
      <trkpt lat="45.61128" lon="6.67689">
        <ele>1646.4</ele>
        <time>2018-02-06T08:47:23Z</time>
      </trkpt>
      <trkpt lat="45.6113" lon="6.67689">
        <ele>1647.84</ele>
        <time>2018-02-06T08:47:27Z</time>
      </trkpt>
      <trkpt lat="45.6114" lon="6.6769">
        <ele>1646.88</ele>
        <time>2018-02-06T08:47:37Z</time>
      </trkpt>
      <trkpt lat="45.61148" lon="6.67696">
        <ele>1646.88</ele>
        <time>2018-02-06T08:47:49Z</time>
      </trkpt>
      <trkpt lat="45.61156" lon="6.67697">
        <ele>1650.72</ele>
        <time>2018-02-06T08:48:07Z</time>
      </trkpt>
      <trkpt lat="45.61157" lon="6.67697">
        <ele>1650.72</ele>
        <time>2018-02-06T08:48:08Z</time>
      </trkpt>
      <trkpt lat="45.61166" lon="6.67701">
        <ele>1650.72</ele>
        <time>2018-02-06T08:48:21Z</time>
      </trkpt>
      <trkpt lat="45.61178" lon="6.67706">
        <ele>1649.76</ele>
        <time>2018-02-06T08:48:37Z</time>
      </trkpt>
      <trkpt lat="45.61184" lon="6.67704">
        <ele>1649.76</ele>
        <time>2018-02-06T08:48:51Z</time>
      </trkpt>
      <trkpt lat="45.61193" lon="6.6771">
        <ele>1650.72</ele>
        <time>2018-02-06T08:49:03Z</time>
      </trkpt>
      <trkpt lat="45.61204" lon="6.6771">
        <ele>1649.28</ele>
        <time>2018-02-06T08:49:18Z</time>
      </trkpt>
      <trkpt lat="45.61213" lon="6.67714">
        <ele>1648.8</ele>
        <time>2018-02-06T08:49:32Z</time>
      </trkpt>
      <trkpt lat="45.61225" lon="6.67718">
        <ele>1649.28</ele>
        <time>2018-02-06T08:49:46Z</time>
      </trkpt>
      <trkpt lat="45.61233" lon="6.6772">
        <ele>1649.28</ele>
        <time>2018-02-06T08:49:59Z</time>
      </trkpt>
      <trkpt lat="45.61234" lon="6.67725">
        <ele>1649.28</ele>
        <time>2018-02-06T08:50:04Z</time>
      </trkpt>
      <trkpt lat="45.61229" lon="6.67729">
        <ele>1647.84</ele>
        <time>2018-02-06T08:50:14Z</time>
      </trkpt>
      <trkpt lat="45.61235" lon="6.67734">
        <ele>1650.72</ele>
        <time>2018-02-06T08:50:26Z</time>
      </trkpt>
      <trkpt lat="45.61237" lon="6.67732">
        <ele>1647.36</ele>
        <time>2018-02-06T08:50:30Z</time>
      </trkpt>
      <trkpt lat="45.61238" lon="6.67732">
        <ele>1646.4</ele>
        <time>2018-02-06T08:50:32Z</time>
      </trkpt>
      <trkpt lat="45.61239" lon="6.67733">
        <ele>1645.43</ele>
        <time>2018-02-06T08:50:34Z</time>
      </trkpt>
      <trkpt lat="45.61246" lon="6.67739">
        <ele>1644.95</ele>
        <time>2018-02-06T08:50:47Z</time>
      </trkpt>
      <trkpt lat="45.61253" lon="6.67744">
        <ele>1645.91</ele>
        <time>2018-02-06T08:51:00Z</time>
      </trkpt>
      <trkpt lat="45.61262" lon="6.67738">
        <ele>1647.84</ele>
        <time>2018-02-06T08:51:16Z</time>
      </trkpt>
      <trkpt lat="45.61264" lon="6.67741">
        <ele>1648.32</ele>
        <time>2018-02-06T08:51:21Z</time>
      </trkpt>
      <trkpt lat="45.61274" lon="6.67747">
        <ele>1648.32</ele>
        <time>2018-02-06T08:51:34Z</time>
      </trkpt>
      <trkpt lat="45.61285" lon="6.67748">
        <ele>1649.28</ele>
        <time>2018-02-06T08:51:48Z</time>
      </trkpt>
      <trkpt lat="45.61295" lon="6.67747">
        <ele>1650.72</ele>
        <time>2018-02-06T08:52:03Z</time>
      </trkpt>
      <trkpt lat="45.61306" lon="6.67747">
        <ele>1651.2</ele>
        <time>2018-02-06T08:52:16Z</time>
      </trkpt>
      <trkpt lat="45.61313" lon="6.67743">
        <ele>1651.2</ele>
        <time>2018-02-06T08:52:26Z</time>
      </trkpt>
      <trkpt lat="45.61315" lon="6.67744">
        <ele>1651.2</ele>
        <time>2018-02-06T08:52:29Z</time>
      </trkpt>
      <trkpt lat="45.61325" lon="6.67758">
        <ele>1650.72</ele>
        <time>2018-02-06T08:52:46Z</time>
      </trkpt>
      <trkpt lat="45.61329" lon="6.67758">
        <ele>1651.68</ele>
        <time>2018-02-06T08:52:53Z</time>
      </trkpt>
      <trkpt lat="45.61342" lon="6.67766">
        <ele>1651.68</ele>
        <time>2018-02-06T08:53:08Z</time>
      </trkpt>
      <trkpt lat="45.61344" lon="6.67771">
        <ele>1652.16</ele>
        <time>2018-02-06T08:53:14Z</time>
      </trkpt>
      <trkpt lat="45.61352" lon="6.6778">
        <ele>1652.16</ele>
        <time>2018-02-06T08:53:32Z</time>
      </trkpt>
      <trkpt lat="45.61359" lon="6.67787">
        <ele>1652.64</ele>
        <time>2018-02-06T08:53:45Z</time>
      </trkpt>
      <trkpt lat="45.61371" lon="6.67785">
        <ele>1654.09</ele>
        <time>2018-02-06T08:53:59Z</time>
      </trkpt>
      <trkpt lat="45.61371" lon="6.67784">
        <ele>1654.57</ele>
        <time>2018-02-06T08:54:00Z</time>
      </trkpt>
      <trkpt lat="45.61386" lon="6.67783">
        <ele>1655.53</ele>
        <time>2018-02-06T08:54:17Z</time>
      </trkpt>
      <trkpt lat="45.61398" lon="6.67783">
        <ele>1656.49</ele>
        <time>2018-02-06T08:54:32Z</time>
      </trkpt>
      <trkpt lat="45.61409" lon="6.67781">
        <ele>1657.93</ele>
        <time>2018-02-06T08:54:47Z</time>
      </trkpt>
      <trkpt lat="45.6142" lon="6.6778">
        <ele>1657.45</ele>
        <time>2018-02-06T08:55:01Z</time>
      </trkpt>
      <trkpt lat="45.61431" lon="6.67781">
        <ele>1658.41</ele>
        <time>2018-02-06T08:55:16Z</time>
      </trkpt>
      <trkpt lat="45.61444" lon="6.6778">
        <ele>1659.37</ele>
        <time>2018-02-06T08:55:34Z</time>
      </trkpt>
      <trkpt lat="45.61451" lon="6.67779">
        <ele>1661.78</ele>
        <time>2018-02-06T08:55:43Z</time>
      </trkpt>
      <trkpt lat="45.61453" lon="6.67779">
        <ele>1661.78</ele>
        <time>2018-02-06T08:55:46Z</time>
      </trkpt>
      <trkpt lat="45.61467" lon="6.67783">
        <ele>1662.26</ele>
        <time>2018-02-06T08:56:01Z</time>
      </trkpt>
      <trkpt lat="45.6148" lon="6.67781">
        <ele>1663.22</ele>
        <time>2018-02-06T08:56:18Z</time>
      </trkpt>
      <trkpt lat="45.61491" lon="6.6778">
        <ele>1664.18</ele>
        <time>2018-02-06T08:56:33Z</time>
      </trkpt>
      <trkpt lat="45.61502" lon="6.67784">
        <ele>1665.14</ele>
        <time>2018-02-06T08:56:47Z</time>
      </trkpt>
      <trkpt lat="45.61501" lon="6.67784">
        <ele>1665.62</ele>
        <time>2018-02-06T08:57:02Z</time>
      </trkpt>
      <trkpt lat="45.61501" lon="6.67781">
        <ele>1665.14</ele>
        <time>2018-02-06T08:57:19Z</time>
      </trkpt>
      <trkpt lat="45.615" lon="6.67781">
        <ele>1663.7</ele>
        <time>2018-02-06T08:57:38Z</time>
      </trkpt>
      <trkpt lat="45.615" lon="6.67786">
        <ele>1663.7</ele>
        <time>2018-02-06T08:58:13Z</time>
      </trkpt>
      <trkpt lat="45.61501" lon="6.67784">
        <ele>1663.7</ele>
        <time>2018-02-06T08:58:39Z</time>
      </trkpt>
      <trkpt lat="45.61502" lon="6.67783">
        <ele>1664.66</ele>
        <time>2018-02-06T08:59:12Z</time>
      </trkpt>
      <trkpt lat="45.61504" lon="6.6778">
        <ele>1664.66</ele>
        <time>2018-02-06T08:59:44Z</time>
      </trkpt>
      <trkpt lat="45.61503" lon="6.67781">
        <ele>1665.14</ele>
        <time>2018-02-06T09:00:19Z</time>
      </trkpt>
      <trkpt lat="45.61505" lon="6.67782">
        <ele>1664.66</ele>
        <time>2018-02-06T09:00:54Z</time>
      </trkpt>
      <trkpt lat="45.61501" lon="6.67781">
        <ele>1665.14</ele>
        <time>2018-02-06T09:01:24Z</time>
      </trkpt>
      <trkpt lat="45.61503" lon="6.67786">
        <ele>1665.14</ele>
        <time>2018-02-06T09:01:57Z</time>
      </trkpt>
      <trkpt lat="45.61505" lon="6.67785">
        <ele>1664.66</ele>
        <time>2018-02-06T09:02:29Z</time>
      </trkpt>
      <trkpt lat="45.61506" lon="6.67787">
        <ele>1664.18</ele>
        <time>2018-02-06T09:03:04Z</time>
      </trkpt>
      <trkpt lat="45.61505" lon="6.67788">
        <ele>1664.18</ele>
        <time>2018-02-06T09:03:45Z</time>
      </trkpt>
      <trkpt lat="45.61506" lon="6.67788">
        <ele>1664.66</ele>
        <time>2018-02-06T09:04:16Z</time>
      </trkpt>
      <trkpt lat="45.61505" lon="6.67787">
        <ele>1664.18</ele>
        <time>2018-02-06T09:04:49Z</time>
      </trkpt>
      <trkpt lat="45.61502" lon="6.67787">
        <ele>1664.66</ele>
        <time>2018-02-06T09:05:18Z</time>
      </trkpt>
      <trkpt lat="45.61502" lon="6.67788">
        <ele>1664.18</ele>
        <time>2018-02-06T09:05:37Z</time>
      </trkpt>
      <trkpt lat="45.61502" lon="6.67786">
        <ele>1664.66</ele>
        <time>2018-02-06T09:06:11Z</time>
      </trkpt>
      <trkpt lat="45.61503" lon="6.67788">
        <ele>1665.62</ele>
        <time>2018-02-06T09:06:29Z</time>
      </trkpt>
      <trkpt lat="45.61504" lon="6.67783">
        <ele>1666.1</ele>
        <time>2018-02-06T09:06:45Z</time>
      </trkpt>
      <trkpt lat="45.61504" lon="6.67782">
        <ele>1666.1</ele>
        <time>2018-02-06T09:07:02Z</time>
      </trkpt>
      <trkpt lat="45.61505" lon="6.67782">
        <ele>1666.58</ele>
        <time>2018-02-06T09:07:26Z</time>
      </trkpt>
      <trkpt lat="45.61512" lon="6.67781">
        <ele>1666.58</ele>
        <time>2018-02-06T09:07:36Z</time>
      </trkpt>
      <trkpt lat="45.61519" lon="6.67782">
        <ele>1667.54</ele>
        <time>2018-02-06T09:07:45Z</time>
      </trkpt>
      <trkpt lat="45.61531" lon="6.67782">
        <ele>1667.54</ele>
        <time>2018-02-06T09:07:59Z</time>
      </trkpt>
      <trkpt lat="45.61544" lon="6.67781">
        <ele>1668.02</ele>
        <time>2018-02-06T09:08:14Z</time>
      </trkpt>
      <trkpt lat="45.61545" lon="6.67781">
        <ele>1668.02</ele>
        <time>2018-02-06T09:08:15Z</time>
      </trkpt>
      <trkpt lat="45.61555" lon="6.67782">
        <ele>1669.47</ele>
        <time>2018-02-06T09:08:27Z</time>
      </trkpt>
      <trkpt lat="45.61566" lon="6.67784">
        <ele>1671.87</ele>
        <time>2018-02-06T09:08:42Z</time>
      </trkpt>
      <trkpt lat="45.61579" lon="6.67787">
        <ele>1672.83</ele>
        <time>2018-02-06T09:08:57Z</time>
      </trkpt>
      <trkpt lat="45.61592" lon="6.67789">
        <ele>1675.23</ele>
        <time>2018-02-06T09:09:12Z</time>
      </trkpt>
      <trkpt lat="45.61593" lon="6.67789">
        <ele>1675.23</ele>
        <time>2018-02-06T09:09:13Z</time>
      </trkpt>
      <trkpt lat="45.61606" lon="6.67792">
        <ele>1675.72</ele>
        <time>2018-02-06T09:09:28Z</time>
      </trkpt>
      <trkpt lat="45.61608" lon="6.67793">
        <ele>1676.68</ele>
        <time>2018-02-06T09:09:31Z</time>
      </trkpt>
      <trkpt lat="45.6162" lon="6.67797">
        <ele>1676.2</ele>
        <time>2018-02-06T09:09:45Z</time>
      </trkpt>
      <trkpt lat="45.61632" lon="6.67796">
        <ele>1677.16</ele>
        <time>2018-02-06T09:10:00Z</time>
      </trkpt>
      <trkpt lat="45.61643" lon="6.67795">
        <ele>1678.12</ele>
        <time>2018-02-06T09:10:14Z</time>
      </trkpt>
      <trkpt lat="45.61656" lon="6.67795">
        <ele>1680.52</ele>
        <time>2018-02-06T09:10:30Z</time>
      </trkpt>
      <trkpt lat="45.61669" lon="6.67795">
        <ele>1681.96</ele>
        <time>2018-02-06T09:10:44Z</time>
      </trkpt>
      <trkpt lat="45.61672" lon="6.67795">
        <ele>1682.44</ele>
        <time>2018-02-06T09:10:47Z</time>
      </trkpt>
      <trkpt lat="45.61681" lon="6.67794">
        <ele>1682.44</ele>
        <time>2018-02-06T09:10:56Z</time>
      </trkpt>
      <trkpt lat="45.61697" lon="6.67793">
        <ele>1682.44</ele>
        <time>2018-02-06T09:11:13Z</time>
      </trkpt>
      <trkpt lat="45.61698" lon="6.67793">
        <ele>1682.44</ele>
        <time>2018-02-06T09:11:14Z</time>
      </trkpt>
      <trkpt lat="45.6171" lon="6.67792">
        <ele>1684.37</ele>
        <time>2018-02-06T09:11:29Z</time>
      </trkpt>
      <trkpt lat="45.61717" lon="6.67792">
        <ele>1686.29</ele>
        <time>2018-02-06T09:11:39Z</time>
      </trkpt>
      <trkpt lat="45.61725" lon="6.6779">
        <ele>1685.33</ele>
        <time>2018-02-06T09:11:53Z</time>
      </trkpt>
      <trkpt lat="45.61738" lon="6.67788">
        <ele>1686.77</ele>
        <time>2018-02-06T09:12:08Z</time>
      </trkpt>
      <trkpt lat="45.61741" lon="6.67787">
        <ele>1687.25</ele>
        <time>2018-02-06T09:12:11Z</time>
      </trkpt>
      <trkpt lat="45.61745" lon="6.67786">
        <ele>1687.73</ele>
        <time>2018-02-06T09:12:15Z</time>
      </trkpt>
      <trkpt lat="45.61756" lon="6.67787">
        <ele>1688.69</ele>
        <time>2018-02-06T09:12:29Z</time>
      </trkpt>
      <trkpt lat="45.61766" lon="6.67786">
        <ele>1690.14</ele>
        <time>2018-02-06T09:12:42Z</time>
      </trkpt>
      <trkpt lat="45.6178" lon="6.67785">
        <ele>1690.14</ele>
        <time>2018-02-06T09:12:56Z</time>
      </trkpt>
      <trkpt lat="45.61793" lon="6.67786">
        <ele>1691.58</ele>
        <time>2018-02-06T09:13:11Z</time>
      </trkpt>
      <trkpt lat="45.61806" lon="6.67785">
        <ele>1692.06</ele>
        <time>2018-02-06T09:13:27Z</time>
      </trkpt>
      <trkpt lat="45.61817" lon="6.67783">
        <ele>1693.98</ele>
        <time>2018-02-06T09:13:40Z</time>
      </trkpt>
      <trkpt lat="45.6183" lon="6.6778">
        <ele>1694.94</ele>
        <time>2018-02-06T09:13:55Z</time>
      </trkpt>
      <trkpt lat="45.61843" lon="6.67778">
        <ele>1696.38</ele>
        <time>2018-02-06T09:14:11Z</time>
      </trkpt>
      <trkpt lat="45.61855" lon="6.67775">
        <ele>1697.34</ele>
        <time>2018-02-06T09:14:26Z</time>
      </trkpt>
      <trkpt lat="45.61864" lon="6.67771">
        <ele>1696.86</ele>
        <time>2018-02-06T09:14:39Z</time>
      </trkpt>
      <trkpt lat="45.61872" lon="6.67772">
        <ele>1699.75</ele>
        <time>2018-02-06T09:14:51Z</time>
      </trkpt>
      <trkpt lat="45.61882" lon="6.67772">
        <ele>1700.23</ele>
        <time>2018-02-06T09:15:06Z</time>
      </trkpt>
      <trkpt lat="45.61887" lon="6.67772">
        <ele>1702.15</ele>
        <time>2018-02-06T09:15:12Z</time>
      </trkpt>
      <trkpt lat="45.61897" lon="6.67768">
        <ele>1701.67</ele>
        <time>2018-02-06T09:15:24Z</time>
      </trkpt>
      <trkpt lat="45.61906" lon="6.67763">
        <ele>1702.63</ele>
        <time>2018-02-06T09:15:37Z</time>
      </trkpt>
      <trkpt lat="45.61909" lon="6.67761">
        <ele>1704.07</ele>
        <time>2018-02-06T09:15:42Z</time>
      </trkpt>
      <trkpt lat="45.61919" lon="6.67757">
        <ele>1704.55</ele>
        <time>2018-02-06T09:15:55Z</time>
      </trkpt>
      <trkpt lat="45.6193" lon="6.67754">
        <ele>1705.04</ele>
        <time>2018-02-06T09:16:10Z</time>
      </trkpt>
      <trkpt lat="45.6194" lon="6.67751">
        <ele>1706.96</ele>
        <time>2018-02-06T09:16:25Z</time>
      </trkpt>
      <trkpt lat="45.61951" lon="6.6775">
        <ele>1708.88</ele>
        <time>2018-02-06T09:16:41Z</time>
      </trkpt>
      <trkpt lat="45.61964" lon="6.67748">
        <ele>1710.8</ele>
        <time>2018-02-06T09:17:00Z</time>
      </trkpt>
      <trkpt lat="45.61979" lon="6.67747">
        <ele>1713.21</ele>
        <time>2018-02-06T09:17:19Z</time>
      </trkpt>
      <trkpt lat="45.61988" lon="6.67751">
        <ele>1714.65</ele>
        <time>2018-02-06T09:17:35Z</time>
      </trkpt>
      <trkpt lat="45.61996" lon="6.67751">
        <ele>1715.61</ele>
        <time>2018-02-06T09:17:45Z</time>
      </trkpt>
      <trkpt lat="45.62007" lon="6.67756">
        <ele>1716.57</ele>
        <time>2018-02-06T09:18:01Z</time>
      </trkpt>
      <trkpt lat="45.62011" lon="6.67758">
        <ele>1717.53</ele>
        <time>2018-02-06T09:18:14Z</time>
      </trkpt>
      <trkpt lat="45.62011" lon="6.67756">
        <ele>1718.01</ele>
        <time>2018-02-06T09:18:22Z</time>
      </trkpt>
      <trkpt lat="45.62023" lon="6.67761">
        <ele>1718.97</ele>
        <time>2018-02-06T09:18:37Z</time>
      </trkpt>
      <trkpt lat="45.62035" lon="6.67765">
        <ele>1719.46</ele>
        <time>2018-02-06T09:18:50Z</time>
      </trkpt>
      <trkpt lat="45.62046" lon="6.67765">
        <ele>1720.42</ele>
        <time>2018-02-06T09:19:04Z</time>
      </trkpt>
      <trkpt lat="45.62058" lon="6.67764">
        <ele>1721.86</ele>
        <time>2018-02-06T09:19:19Z</time>
      </trkpt>
      <trkpt lat="45.62069" lon="6.67763">
        <ele>1722.82</ele>
        <time>2018-02-06T09:19:32Z</time>
      </trkpt>
      <trkpt lat="45.62072" lon="6.67763">
        <ele>1722.82</ele>
        <time>2018-02-06T09:19:35Z</time>
      </trkpt>
      <trkpt lat="45.62085" lon="6.67762">
        <ele>1723.3</ele>
        <time>2018-02-06T09:19:51Z</time>
      </trkpt>
      <trkpt lat="45.62097" lon="6.67765">
        <ele>1724.74</ele>
        <time>2018-02-06T09:20:06Z</time>
      </trkpt>
      <trkpt lat="45.62106" lon="6.67769">
        <ele>1727.15</ele>
        <time>2018-02-06T09:20:21Z</time>
      </trkpt>
      <trkpt lat="45.62119" lon="6.67769">
        <ele>1727.63</ele>
        <time>2018-02-06T09:20:36Z</time>
      </trkpt>
      <trkpt lat="45.62128" lon="6.67767">
        <ele>1730.03</ele>
        <time>2018-02-06T09:20:53Z</time>
      </trkpt>
      <trkpt lat="45.62139" lon="6.67764">
        <ele>1731.95</ele>
        <time>2018-02-06T09:21:07Z</time>
      </trkpt>
      <trkpt lat="45.62148" lon="6.67766">
        <ele>1733.39</ele>
        <time>2018-02-06T09:21:20Z</time>
      </trkpt>
      <trkpt lat="45.62155" lon="6.67766">
        <ele>1734.36</ele>
        <time>2018-02-06T09:21:32Z</time>
      </trkpt>
      <trkpt lat="45.62166" lon="6.67769">
        <ele>1736.76</ele>
        <time>2018-02-06T09:21:48Z</time>
      </trkpt>
      <trkpt lat="45.62174" lon="6.67772">
        <ele>1736.76</ele>
        <time>2018-02-06T09:22:00Z</time>
      </trkpt>
      <trkpt lat="45.62182" lon="6.67773">
        <ele>1738.68</ele>
        <time>2018-02-06T09:22:17Z</time>
      </trkpt>
      <trkpt lat="45.62193" lon="6.67776">
        <ele>1740.6</ele>
        <time>2018-02-06T09:22:35Z</time>
      </trkpt>
      <trkpt lat="45.62199" lon="6.67781">
        <ele>1741.08</ele>
        <time>2018-02-06T09:22:50Z</time>
      </trkpt>
      <trkpt lat="45.62203" lon="6.6779">
        <ele>1743.49</ele>
        <time>2018-02-06T09:23:03Z</time>
      </trkpt>
      <trkpt lat="45.62207" lon="6.67794">
        <ele>1744.45</ele>
        <time>2018-02-06T09:23:20Z</time>
      </trkpt>
      <trkpt lat="45.62205" lon="6.67792">
        <ele>1743.97</ele>
        <time>2018-02-06T09:23:32Z</time>
      </trkpt>
      <trkpt lat="45.62207" lon="6.67798">
        <ele>1743.49</ele>
        <time>2018-02-06T09:23:51Z</time>
      </trkpt>
      <trkpt lat="45.6221" lon="6.67791">
        <ele>1744.93</ele>
        <time>2018-02-06T09:24:07Z</time>
      </trkpt>
      <trkpt lat="45.6221" lon="6.6779">
        <ele>1745.41</ele>
        <time>2018-02-06T09:24:29Z</time>
      </trkpt>
      <trkpt lat="45.62215" lon="6.67798">
        <ele>1746.37</ele>
        <time>2018-02-06T09:24:43Z</time>
      </trkpt>
      <trkpt lat="45.62219" lon="6.678">
        <ele>1745.41</ele>
        <time>2018-02-06T09:24:47Z</time>
      </trkpt>
      <trkpt lat="45.62234" lon="6.67802">
        <ele>1744.45</ele>
        <time>2018-02-06T09:25:02Z</time>
      </trkpt>
      <trkpt lat="45.62246" lon="6.67805">
        <ele>1745.89</ele>
        <time>2018-02-06T09:25:16Z</time>
      </trkpt>
      <trkpt lat="45.62254" lon="6.6781">
        <ele>1748.29</ele>
        <time>2018-02-06T09:25:29Z</time>
      </trkpt>
      <trkpt lat="45.62264" lon="6.67813">
        <ele>1748.78</ele>
        <time>2018-02-06T09:25:43Z</time>
      </trkpt>
      <trkpt lat="45.62272" lon="6.6782">
        <ele>1750.22</ele>
        <time>2018-02-06T09:25:56Z</time>
      </trkpt>
      <trkpt lat="45.6228" lon="6.67822">
        <ele>1751.66</ele>
        <time>2018-02-06T09:26:08Z</time>
      </trkpt>
      <trkpt lat="45.62287" lon="6.67822">
        <ele>1753.1</ele>
        <time>2018-02-06T09:26:24Z</time>
      </trkpt>
      <trkpt lat="45.62296" lon="6.67822">
        <ele>1755.02</ele>
        <time>2018-02-06T09:26:38Z</time>
      </trkpt>
      <trkpt lat="45.62307" lon="6.67822">
        <ele>1758.39</ele>
        <time>2018-02-06T09:26:56Z</time>
      </trkpt>
      <trkpt lat="45.62317" lon="6.67822">
        <ele>1757.91</ele>
        <time>2018-02-06T09:27:10Z</time>
      </trkpt>
      <trkpt lat="45.62328" lon="6.67828">
        <ele>1759.83</ele>
        <time>2018-02-06T09:27:28Z</time>
      </trkpt>
      <trkpt lat="45.62335" lon="6.67834">
        <ele>1760.79</ele>
        <time>2018-02-06T09:27:44Z</time>
      </trkpt>
      <trkpt lat="45.62339" lon="6.67838">
        <ele>1761.27</ele>
        <time>2018-02-06T09:28:06Z</time>
      </trkpt>
      <trkpt lat="45.62337" lon="6.67839">
        <ele>1761.27</ele>
        <time>2018-02-06T09:28:27Z</time>
      </trkpt>
      <trkpt lat="45.62345" lon="6.67836">
        <ele>1762.71</ele>
        <time>2018-02-06T09:28:39Z</time>
      </trkpt>
      <trkpt lat="45.62354" lon="6.67838">
        <ele>1764.16</ele>
        <time>2018-02-06T09:28:51Z</time>
      </trkpt>
      <trkpt lat="45.62363" lon="6.67835">
        <ele>1766.08</ele>
        <time>2018-02-06T09:29:05Z</time>
      </trkpt>
      <trkpt lat="45.62371" lon="6.67828">
        <ele>1768</ele>
        <time>2018-02-06T09:29:17Z</time>
      </trkpt>
      <trkpt lat="45.62375" lon="6.67824">
        <ele>1768.48</ele>
        <time>2018-02-06T09:29:20Z</time>
      </trkpt>
      <trkpt lat="45.62384" lon="6.67824">
        <ele>1769.92</ele>
        <time>2018-02-06T09:29:32Z</time>
      </trkpt>
      <trkpt lat="45.62392" lon="6.67822">
        <ele>1770.89</ele>
        <time>2018-02-06T09:29:45Z</time>
      </trkpt>
      <trkpt lat="45.62399" lon="6.67816">
        <ele>1772.33</ele>
        <time>2018-02-06T09:29:58Z</time>
      </trkpt>
      <trkpt lat="45.6241" lon="6.67809">
        <ele>1772.81</ele>
        <time>2018-02-06T09:30:12Z</time>
      </trkpt>
      <trkpt lat="45.62419" lon="6.67804">
        <ele>1774.25</ele>
        <time>2018-02-06T09:30:24Z</time>
      </trkpt>
      <trkpt lat="45.62419" lon="6.67804">
        <ele>1774.25</ele>
        <time>2018-02-06T09:30:25Z</time>
      </trkpt>
      <trkpt lat="45.62429" lon="6.678">
        <ele>1775.69</ele>
        <time>2018-02-06T09:30:39Z</time>
      </trkpt>
      <trkpt lat="45.62437" lon="6.67801">
        <ele>1777.13</ele>
        <time>2018-02-06T09:30:51Z</time>
      </trkpt>
      <trkpt lat="45.62441" lon="6.678">
        <ele>1777.13</ele>
        <time>2018-02-06T09:30:57Z</time>
      </trkpt>
      <trkpt lat="45.62445" lon="6.67799">
        <ele>1777.61</ele>
        <time>2018-02-06T09:31:02Z</time>
      </trkpt>
      <trkpt lat="45.62448" lon="6.67798">
        <ele>1777.13</ele>
        <time>2018-02-06T09:31:06Z</time>
      </trkpt>
      <trkpt lat="45.62458" lon="6.67795">
        <ele>1778.58</ele>
        <time>2018-02-06T09:31:19Z</time>
      </trkpt>
      <trkpt lat="45.62468" lon="6.67789">
        <ele>1780.02</ele>
        <time>2018-02-06T09:31:34Z</time>
      </trkpt>
      <trkpt lat="45.62475" lon="6.67787">
        <ele>1780.02</ele>
        <time>2018-02-06T09:31:43Z</time>
      </trkpt>
      <trkpt lat="45.62486" lon="6.6778">
        <ele>1781.46</ele>
        <time>2018-02-06T09:31:59Z</time>
      </trkpt>
      <trkpt lat="45.62496" lon="6.67773">
        <ele>1782.9</ele>
        <time>2018-02-06T09:32:14Z</time>
      </trkpt>
      <trkpt lat="45.62502" lon="6.6777">
        <ele>1784.82</ele>
        <time>2018-02-06T09:32:28Z</time>
      </trkpt>
      <trkpt lat="45.62509" lon="6.67767">
        <ele>1785.79</ele>
        <time>2018-02-06T09:32:43Z</time>
      </trkpt>
      <trkpt lat="45.62518" lon="6.67758">
        <ele>1787.23</ele>
        <time>2018-02-06T09:32:57Z</time>
      </trkpt>
      <trkpt lat="45.62526" lon="6.67757">
        <ele>1787.71</ele>
        <time>2018-02-06T09:33:10Z</time>
      </trkpt>
      <trkpt lat="45.62533" lon="6.67751">
        <ele>1789.15</ele>
        <time>2018-02-06T09:33:21Z</time>
      </trkpt>
      <trkpt lat="45.62542" lon="6.67747">
        <ele>1790.11</ele>
        <time>2018-02-06T09:33:34Z</time>
      </trkpt>
      <trkpt lat="45.62551" lon="6.67741">
        <ele>1792.03</ele>
        <time>2018-02-06T09:33:51Z</time>
      </trkpt>
      <trkpt lat="45.62561" lon="6.67737">
        <ele>1793.48</ele>
        <time>2018-02-06T09:34:05Z</time>
      </trkpt>
      <trkpt lat="45.6257" lon="6.67734">
        <ele>1794.92</ele>
        <time>2018-02-06T09:34:18Z</time>
      </trkpt>
      <trkpt lat="45.6258" lon="6.6773">
        <ele>1795.88</ele>
        <time>2018-02-06T09:34:34Z</time>
      </trkpt>
      <trkpt lat="45.6259" lon="6.67727">
        <ele>1797.32</ele>
        <time>2018-02-06T09:34:51Z</time>
      </trkpt>
      <trkpt lat="45.62596" lon="6.67722">
        <ele>1798.76</ele>
        <time>2018-02-06T09:35:03Z</time>
      </trkpt>
      <trkpt lat="45.62604" lon="6.6772">
        <ele>1800.69</ele>
        <time>2018-02-06T09:35:16Z</time>
      </trkpt>
      <trkpt lat="45.62612" lon="6.67715">
        <ele>1802.13</ele>
        <time>2018-02-06T09:35:31Z</time>
      </trkpt>
      <trkpt lat="45.62624" lon="6.6771">
        <ele>1803.09</ele>
        <time>2018-02-06T09:35:45Z</time>
      </trkpt>
      <trkpt lat="45.62631" lon="6.67707">
        <ele>1805.01</ele>
        <time>2018-02-06T09:35:59Z</time>
      </trkpt>
      <trkpt lat="45.62638" lon="6.67705">
        <ele>1806.94</ele>
        <time>2018-02-06T09:36:13Z</time>
      </trkpt>
      <trkpt lat="45.62646" lon="6.67705">
        <ele>1809.34</ele>
        <time>2018-02-06T09:36:26Z</time>
      </trkpt>
      <trkpt lat="45.62654" lon="6.67698">
        <ele>1811.26</ele>
        <time>2018-02-06T09:36:41Z</time>
      </trkpt>
      <trkpt lat="45.62662" lon="6.67694">
        <ele>1812.7</ele>
        <time>2018-02-06T09:36:56Z</time>
      </trkpt>
      <trkpt lat="45.62672" lon="6.67689">
        <ele>1813.18</ele>
        <time>2018-02-06T09:37:11Z</time>
      </trkpt>
      <trkpt lat="45.62677" lon="6.6768">
        <ele>1814.15</ele>
        <time>2018-02-06T09:37:24Z</time>
      </trkpt>
      <trkpt lat="45.62684" lon="6.67676">
        <ele>1815.59</ele>
        <time>2018-02-06T09:37:37Z</time>
      </trkpt>
      <trkpt lat="45.62695" lon="6.67671">
        <ele>1817.03</ele>
        <time>2018-02-06T09:37:54Z</time>
      </trkpt>
      <trkpt lat="45.62704" lon="6.67669">
        <ele>1817.99</ele>
        <time>2018-02-06T09:38:06Z</time>
      </trkpt>
      <trkpt lat="45.62714" lon="6.67664">
        <ele>1819.43</ele>
        <time>2018-02-06T09:38:19Z</time>
      </trkpt>
      <trkpt lat="45.62723" lon="6.67662">
        <ele>1820.87</ele>
        <time>2018-02-06T09:38:35Z</time>
      </trkpt>
      <trkpt lat="45.62733" lon="6.6766">
        <ele>1823.28</ele>
        <time>2018-02-06T09:38:52Z</time>
      </trkpt>
      <trkpt lat="45.62742" lon="6.67654">
        <ele>1824.72</ele>
        <time>2018-02-06T09:39:08Z</time>
      </trkpt>
      <trkpt lat="45.6275" lon="6.6765">
        <ele>1825.68</ele>
        <time>2018-02-06T09:39:23Z</time>
      </trkpt>
      <trkpt lat="45.6276" lon="6.67651">
        <ele>1827.6</ele>
        <time>2018-02-06T09:39:38Z</time>
      </trkpt>
      <trkpt lat="45.6277" lon="6.67646">
        <ele>1829.53</ele>
        <time>2018-02-06T09:39:53Z</time>
      </trkpt>
      <trkpt lat="45.62779" lon="6.67645">
        <ele>1830.97</ele>
        <time>2018-02-06T09:40:07Z</time>
      </trkpt>
      <trkpt lat="45.62787" lon="6.6764">
        <ele>1832.89</ele>
        <time>2018-02-06T09:40:20Z</time>
      </trkpt>
      <trkpt lat="45.62794" lon="6.67636">
        <ele>1834.33</ele>
        <time>2018-02-06T09:40:34Z</time>
      </trkpt>
      <trkpt lat="45.62801" lon="6.67628">
        <ele>1835.29</ele>
        <time>2018-02-06T09:40:48Z</time>
      </trkpt>
      <trkpt lat="45.6281" lon="6.67622">
        <ele>1836.74</ele>
        <time>2018-02-06T09:41:01Z</time>
      </trkpt>
      <trkpt lat="45.62816" lon="6.67617">
        <ele>1839.14</ele>
        <time>2018-02-06T09:41:15Z</time>
      </trkpt>
      <trkpt lat="45.6282" lon="6.67613">
        <ele>1841.06</ele>
        <time>2018-02-06T09:41:22Z</time>
      </trkpt>
      <trkpt lat="45.62826" lon="6.67605">
        <ele>1840.1</ele>
        <time>2018-02-06T09:41:35Z</time>
      </trkpt>
      <trkpt lat="45.62833" lon="6.67596">
        <ele>1841.06</ele>
        <time>2018-02-06T09:41:48Z</time>
      </trkpt>
      <trkpt lat="45.62843" lon="6.67589">
        <ele>1842.5</ele>
        <time>2018-02-06T09:42:02Z</time>
      </trkpt>
      <trkpt lat="45.62849" lon="6.67585">
        <ele>1843.47</ele>
        <time>2018-02-06T09:42:12Z</time>
      </trkpt>
      <trkpt lat="45.62861" lon="6.67577">
        <ele>1844.43</ele>
        <time>2018-02-06T09:42:30Z</time>
      </trkpt>
      <trkpt lat="45.62871" lon="6.67574">
        <ele>1845.39</ele>
        <time>2018-02-06T09:42:43Z</time>
      </trkpt>
      <trkpt lat="45.62875" lon="6.67572">
        <ele>1845.87</ele>
        <time>2018-02-06T09:42:47Z</time>
      </trkpt>
      <trkpt lat="45.62885" lon="6.67563">
        <ele>1847.31</ele>
        <time>2018-02-06T09:43:02Z</time>
      </trkpt>
      <trkpt lat="45.62895" lon="6.67551">
        <ele>1847.31</ele>
        <time>2018-02-06T09:43:13Z</time>
      </trkpt>
      <trkpt lat="45.62903" lon="6.67534">
        <ele>1846.35</ele>
        <time>2018-02-06T09:43:27Z</time>
      </trkpt>
      <trkpt lat="45.62903" lon="6.67533">
        <ele>1846.35</ele>
        <time>2018-02-06T09:43:28Z</time>
      </trkpt>
      <trkpt lat="45.62906" lon="6.67518">
        <ele>1846.35</ele>
        <time>2018-02-06T09:43:39Z</time>
      </trkpt>
      <trkpt lat="45.6291" lon="6.67507">
        <ele>1847.31</ele>
        <time>2018-02-06T09:43:51Z</time>
      </trkpt>
      <trkpt lat="45.6292" lon="6.67499">
        <ele>1848.75</ele>
        <time>2018-02-06T09:44:08Z</time>
      </trkpt>
      <trkpt lat="45.62929" lon="6.67496">
        <ele>1850.68</ele>
        <time>2018-02-06T09:44:23Z</time>
      </trkpt>
      <trkpt lat="45.62936" lon="6.67488">
        <ele>1851.64</ele>
        <time>2018-02-06T09:44:35Z</time>
      </trkpt>
      <trkpt lat="45.62944" lon="6.67481">
        <ele>1852.6</ele>
        <time>2018-02-06T09:44:51Z</time>
      </trkpt>
      <trkpt lat="45.62953" lon="6.67475">
        <ele>1853.56</ele>
        <time>2018-02-06T09:45:07Z</time>
      </trkpt>
      <trkpt lat="45.62963" lon="6.6747">
        <ele>1855</ele>
        <time>2018-02-06T09:45:21Z</time>
      </trkpt>
      <trkpt lat="45.62972" lon="6.67462">
        <ele>1856.44</ele>
        <time>2018-02-06T09:45:39Z</time>
      </trkpt>
      <trkpt lat="45.62981" lon="6.67457">
        <ele>1857.4</ele>
        <time>2018-02-06T09:45:52Z</time>
      </trkpt>
      <trkpt lat="45.62987" lon="6.67453">
        <ele>1859.33</ele>
        <time>2018-02-06T09:46:07Z</time>
      </trkpt>
      <trkpt lat="45.62994" lon="6.67446">
        <ele>1860.29</ele>
        <time>2018-02-06T09:46:21Z</time>
      </trkpt>
      <trkpt lat="45.62997" lon="6.67442">
        <ele>1861.25</ele>
        <time>2018-02-06T09:46:26Z</time>
      </trkpt>
      <trkpt lat="45.63005" lon="6.67436">
        <ele>1861.73</ele>
        <time>2018-02-06T09:46:42Z</time>
      </trkpt>
      <trkpt lat="45.63012" lon="6.67428">
        <ele>1863.65</ele>
        <time>2018-02-06T09:46:55Z</time>
      </trkpt>
      <trkpt lat="45.63016" lon="6.67424">
        <ele>1864.13</ele>
        <time>2018-02-06T09:47:03Z</time>
      </trkpt>
      <trkpt lat="45.63024" lon="6.67419">
        <ele>1865.58</ele>
        <time>2018-02-06T09:47:15Z</time>
      </trkpt>
      <trkpt lat="45.63032" lon="6.67415">
        <ele>1867.02</ele>
        <time>2018-02-06T09:47:27Z</time>
      </trkpt>
      <trkpt lat="45.63039" lon="6.67415">
        <ele>1867.98</ele>
        <time>2018-02-06T09:47:41Z</time>
      </trkpt>
      <trkpt lat="45.63044" lon="6.67412">
        <ele>1869.9</ele>
        <time>2018-02-06T09:47:54Z</time>
      </trkpt>
      <trkpt lat="45.63053" lon="6.67417">
        <ele>1871.34</ele>
        <time>2018-02-06T09:48:11Z</time>
      </trkpt>
      <trkpt lat="45.6306" lon="6.6742">
        <ele>1872.79</ele>
        <time>2018-02-06T09:48:23Z</time>
      </trkpt>
      <trkpt lat="45.63065" lon="6.67421">
        <ele>1874.71</ele>
        <time>2018-02-06T09:48:36Z</time>
      </trkpt>
      <trkpt lat="45.63071" lon="6.67427">
        <ele>1876.63</ele>
        <time>2018-02-06T09:48:50Z</time>
      </trkpt>
      <trkpt lat="45.6308" lon="6.67419">
        <ele>1877.59</ele>
        <time>2018-02-06T09:49:05Z</time>
      </trkpt>
      <trkpt lat="45.63088" lon="6.67414">
        <ele>1878.55</ele>
        <time>2018-02-06T09:49:18Z</time>
      </trkpt>
      <trkpt lat="45.63095" lon="6.67408">
        <ele>1879.03</ele>
        <time>2018-02-06T09:49:33Z</time>
      </trkpt>
      <trkpt lat="45.63102" lon="6.67405">
        <ele>1880.96</ele>
        <time>2018-02-06T09:49:46Z</time>
      </trkpt>
      <trkpt lat="45.63111" lon="6.674">
        <ele>1882.4</ele>
        <time>2018-02-06T09:49:59Z</time>
      </trkpt>
      <trkpt lat="45.63119" lon="6.6739">
        <ele>1882.4</ele>
        <time>2018-02-06T09:50:15Z</time>
      </trkpt>
      <trkpt lat="45.63128" lon="6.67382">
        <ele>1882.88</ele>
        <time>2018-02-06T09:50:30Z</time>
      </trkpt>
      <trkpt lat="45.63134" lon="6.67375">
        <ele>1883.84</ele>
        <time>2018-02-06T09:50:43Z</time>
      </trkpt>
      <trkpt lat="45.63145" lon="6.67362">
        <ele>1885.28</ele>
        <time>2018-02-06T09:51:04Z</time>
      </trkpt>
      <trkpt lat="45.63148" lon="6.67356">
        <ele>1884.8</ele>
        <time>2018-02-06T09:51:11Z</time>
      </trkpt>
      <trkpt lat="45.63155" lon="6.67347">
        <ele>1886.24</ele>
        <time>2018-02-06T09:51:24Z</time>
      </trkpt>
      <trkpt lat="45.63161" lon="6.67336">
        <ele>1886.24</ele>
        <time>2018-02-06T09:51:36Z</time>
      </trkpt>
      <trkpt lat="45.63162" lon="6.67331">
        <ele>1887.69</ele>
        <time>2018-02-06T09:51:48Z</time>
      </trkpt>
      <trkpt lat="45.63161" lon="6.67333">
        <ele>1887.69</ele>
        <time>2018-02-06T09:52:10Z</time>
      </trkpt>
      <trkpt lat="45.63162" lon="6.67334">
        <ele>1887.69</ele>
        <time>2018-02-06T09:52:35Z</time>
      </trkpt>
      <trkpt lat="45.63162" lon="6.67324">
        <ele>1887.21</ele>
        <time>2018-02-06T09:52:55Z</time>
      </trkpt>
      <trkpt lat="45.63157" lon="6.67317">
        <ele>1887.69</ele>
        <time>2018-02-06T09:53:07Z</time>
      </trkpt>
      <trkpt lat="45.63154" lon="6.67313">
        <ele>1889.61</ele>
        <time>2018-02-06T09:53:21Z</time>
      </trkpt>
      <trkpt lat="45.63157" lon="6.67307">
        <ele>1891.05</ele>
        <time>2018-02-06T09:53:33Z</time>
      </trkpt>
      <trkpt lat="45.63157" lon="6.67303">
        <ele>1892.49</ele>
        <time>2018-02-06T09:53:46Z</time>
      </trkpt>
      <trkpt lat="45.63159" lon="6.67295">
        <ele>1894.42</ele>
        <time>2018-02-06T09:53:58Z</time>
      </trkpt>
      <trkpt lat="45.63164" lon="6.67292">
        <ele>1894.9</ele>
        <time>2018-02-06T09:54:10Z</time>
      </trkpt>
      <trkpt lat="45.63168" lon="6.67292">
        <ele>1897.3</ele>
        <time>2018-02-06T09:54:22Z</time>
      </trkpt>
      <trkpt lat="45.63171" lon="6.67291">
        <ele>1898.74</ele>
        <time>2018-02-06T09:54:34Z</time>
      </trkpt>
      <trkpt lat="45.63174" lon="6.67291">
        <ele>1899.7</ele>
        <time>2018-02-06T09:54:44Z</time>
      </trkpt>
      <trkpt lat="45.63179" lon="6.6729">
        <ele>1901.14</ele>
        <time>2018-02-06T09:54:58Z</time>
      </trkpt>
      <trkpt lat="45.63179" lon="6.67289">
        <ele>1902.59</ele>
        <time>2018-02-06T09:55:09Z</time>
      </trkpt>
      <trkpt lat="45.63176" lon="6.67283">
        <ele>1903.07</ele>
        <time>2018-02-06T09:55:24Z</time>
      </trkpt>
      <trkpt lat="45.63173" lon="6.67276">
        <ele>1904.03</ele>
        <time>2018-02-06T09:55:37Z</time>
      </trkpt>
      <trkpt lat="45.63169" lon="6.6727">
        <ele>1905.47</ele>
        <time>2018-02-06T09:55:51Z</time>
      </trkpt>
      <trkpt lat="45.63167" lon="6.67262">
        <ele>1906.91</ele>
        <time>2018-02-06T09:56:04Z</time>
      </trkpt>
      <trkpt lat="45.63163" lon="6.67257">
        <ele>1908.35</ele>
        <time>2018-02-06T09:56:17Z</time>
      </trkpt>
      <trkpt lat="45.6316" lon="6.67251">
        <ele>1909.8</ele>
        <time>2018-02-06T09:56:30Z</time>
      </trkpt>
      <trkpt lat="45.63158" lon="6.67247">
        <ele>1910.76</ele>
        <time>2018-02-06T09:56:42Z</time>
      </trkpt>
      <trkpt lat="45.63162" lon="6.67245">
        <ele>1911.24</ele>
        <time>2018-02-06T09:56:53Z</time>
      </trkpt>
      <trkpt lat="45.63168" lon="6.67247">
        <ele>1913.16</ele>
        <time>2018-02-06T09:57:07Z</time>
      </trkpt>
      <trkpt lat="45.63171" lon="6.67248">
        <ele>1914.12</ele>
        <time>2018-02-06T09:57:20Z</time>
      </trkpt>
      <trkpt lat="45.6317" lon="6.67244">
        <ele>1914.12</ele>
        <time>2018-02-06T09:57:34Z</time>
      </trkpt>
      <trkpt lat="45.63165" lon="6.67238">
        <ele>1915.08</ele>
        <time>2018-02-06T09:57:47Z</time>
      </trkpt>
      <trkpt lat="45.6316" lon="6.67232">
        <ele>1917.49</ele>
        <time>2018-02-06T09:58:00Z</time>
      </trkpt>
      <trkpt lat="45.63158" lon="6.67226">
        <ele>1918.45</ele>
        <time>2018-02-06T09:58:12Z</time>
      </trkpt>
      <trkpt lat="45.63161" lon="6.67225">
        <ele>1919.89</ele>
        <time>2018-02-06T09:58:23Z</time>
      </trkpt>
      <trkpt lat="45.63168" lon="6.67225">
        <ele>1921.33</ele>
        <time>2018-02-06T09:58:37Z</time>
      </trkpt>
      <trkpt lat="45.63166" lon="6.67224">
        <ele>1922.29</ele>
        <time>2018-02-06T09:58:52Z</time>
      </trkpt>
      <trkpt lat="45.63162" lon="6.67214">
        <ele>1924.22</ele>
        <time>2018-02-06T09:59:08Z</time>
      </trkpt>
      <trkpt lat="45.63159" lon="6.67207">
        <ele>1925.66</ele>
        <time>2018-02-06T09:59:21Z</time>
      </trkpt>
      <trkpt lat="45.63154" lon="6.67206">
        <ele>1927.1</ele>
        <time>2018-02-06T09:59:34Z</time>
      </trkpt>
      <trkpt lat="45.63158" lon="6.67199">
        <ele>1928.06</ele>
        <time>2018-02-06T09:59:48Z</time>
      </trkpt>
      <trkpt lat="45.63166" lon="6.67199">
        <ele>1929.98</ele>
        <time>2018-02-06T10:00:04Z</time>
      </trkpt>
      <trkpt lat="45.63172" lon="6.672">
        <ele>1931.43</ele>
        <time>2018-02-06T10:00:18Z</time>
      </trkpt>
      <trkpt lat="45.63174" lon="6.67201">
        <ele>1931.91</ele>
        <time>2018-02-06T10:00:31Z</time>
      </trkpt>
      <trkpt lat="45.63169" lon="6.67193">
        <ele>1933.35</ele>
        <time>2018-02-06T10:00:45Z</time>
      </trkpt>
      <trkpt lat="45.63165" lon="6.6719">
        <ele>1933.83</ele>
        <time>2018-02-06T10:00:57Z</time>
      </trkpt>
      <trkpt lat="45.63162" lon="6.67181">
        <ele>1934.79</ele>
        <time>2018-02-06T10:01:10Z</time>
      </trkpt>
      <trkpt lat="45.63159" lon="6.67177">
        <ele>1935.75</ele>
        <time>2018-02-06T10:01:23Z</time>
      </trkpt>
      <trkpt lat="45.63156" lon="6.67173">
        <ele>1936.71</ele>
        <time>2018-02-06T10:01:37Z</time>
      </trkpt>
      <trkpt lat="45.63158" lon="6.6717">
        <ele>1936.71</ele>
        <time>2018-02-06T10:02:09Z</time>
      </trkpt>
      <trkpt lat="45.63166" lon="6.67169">
        <ele>1937.67</ele>
        <time>2018-02-06T10:02:22Z</time>
      </trkpt>
      <trkpt lat="45.6317" lon="6.67172">
        <ele>1938.64</ele>
        <time>2018-02-06T10:02:28Z</time>
      </trkpt>
      <trkpt lat="45.6317" lon="6.67169">
        <ele>1940.08</ele>
        <time>2018-02-06T10:02:40Z</time>
      </trkpt>
      <trkpt lat="45.63164" lon="6.67158">
        <ele>1941.52</ele>
        <time>2018-02-06T10:02:55Z</time>
      </trkpt>
      <trkpt lat="45.63161" lon="6.67151">
        <ele>1942.96</ele>
        <time>2018-02-06T10:03:10Z</time>
      </trkpt>
      <trkpt lat="45.63166" lon="6.6715">
        <ele>1944.88</ele>
        <time>2018-02-06T10:03:22Z</time>
      </trkpt>
      <trkpt lat="45.63172" lon="6.67153">
        <ele>1946.81</ele>
        <time>2018-02-06T10:03:36Z</time>
      </trkpt>
      <trkpt lat="45.63167" lon="6.67144">
        <ele>1946.81</ele>
        <time>2018-02-06T10:03:50Z</time>
      </trkpt>
      <trkpt lat="45.63163" lon="6.67137">
        <ele>1948.25</ele>
        <time>2018-02-06T10:04:04Z</time>
      </trkpt>
      <trkpt lat="45.6316" lon="6.67133">
        <ele>1950.17</ele>
        <time>2018-02-06T10:04:15Z</time>
      </trkpt>
      <trkpt lat="45.63161" lon="6.67125">
        <ele>1951.61</ele>
        <time>2018-02-06T10:04:27Z</time>
      </trkpt>
      <trkpt lat="45.63165" lon="6.67119">
        <ele>1951.61</ele>
        <time>2018-02-06T10:04:41Z</time>
      </trkpt>
      <trkpt lat="45.63171" lon="6.67122">
        <ele>1954.5</ele>
        <time>2018-02-06T10:04:55Z</time>
      </trkpt>
      <trkpt lat="45.63171" lon="6.67121">
        <ele>1954.98</ele>
        <time>2018-02-06T10:05:10Z</time>
      </trkpt>
      <trkpt lat="45.63168" lon="6.6711">
        <ele>1956.42</ele>
        <time>2018-02-06T10:05:25Z</time>
      </trkpt>
      <trkpt lat="45.63164" lon="6.67104">
        <ele>1957.86</ele>
        <time>2018-02-06T10:05:38Z</time>
      </trkpt>
      <trkpt lat="45.63167" lon="6.67098">
        <ele>1959.3</ele>
        <time>2018-02-06T10:05:55Z</time>
      </trkpt>
      <trkpt lat="45.63173" lon="6.67101">
        <ele>1961.71</ele>
        <time>2018-02-06T10:06:10Z</time>
      </trkpt>
      <trkpt lat="45.63178" lon="6.67106">
        <ele>1963.15</ele>
        <time>2018-02-06T10:06:24Z</time>
      </trkpt>
      <trkpt lat="45.63177" lon="6.671">
        <ele>1963.63</ele>
        <time>2018-02-06T10:06:36Z</time>
      </trkpt>
      <trkpt lat="45.63173" lon="6.6709">
        <ele>1965.07</ele>
        <time>2018-02-06T10:06:52Z</time>
      </trkpt>
      <trkpt lat="45.63168" lon="6.67081">
        <ele>1966.03</ele>
        <time>2018-02-06T10:07:05Z</time>
      </trkpt>
      <trkpt lat="45.63165" lon="6.67084">
        <ele>1967.96</ele>
        <time>2018-02-06T10:07:16Z</time>
      </trkpt>
      <trkpt lat="45.63168" lon="6.67079">
        <ele>1967.96</ele>
        <time>2018-02-06T10:07:31Z</time>
      </trkpt>
      <trkpt lat="45.63173" lon="6.6708">
        <ele>1969.88</ele>
        <time>2018-02-06T10:07:45Z</time>
      </trkpt>
      <trkpt lat="45.63178" lon="6.67082">
        <ele>1970.84</ele>
        <time>2018-02-06T10:07:58Z</time>
      </trkpt>
      <trkpt lat="45.63183" lon="6.67086">
        <ele>1972.76</ele>
        <time>2018-02-06T10:08:11Z</time>
      </trkpt>
      <trkpt lat="45.63188" lon="6.67091">
        <ele>1974.2</ele>
        <time>2018-02-06T10:08:24Z</time>
      </trkpt>
      <trkpt lat="45.63186" lon="6.67081">
        <ele>1973.24</ele>
        <time>2018-02-06T10:08:40Z</time>
      </trkpt>
      <trkpt lat="45.63184" lon="6.67072">
        <ele>1975.65</ele>
        <time>2018-02-06T10:08:54Z</time>
      </trkpt>
      <trkpt lat="45.63182" lon="6.67063">
        <ele>1977.57</ele>
        <time>2018-02-06T10:09:09Z</time>
      </trkpt>
      <trkpt lat="45.6318" lon="6.67055">
        <ele>1979.49</ele>
        <time>2018-02-06T10:09:22Z</time>
      </trkpt>
      <trkpt lat="45.63179" lon="6.67046">
        <ele>1980.93</ele>
        <time>2018-02-06T10:09:35Z</time>
      </trkpt>
      <trkpt lat="45.63175" lon="6.67043">
        <ele>1981.41</ele>
        <time>2018-02-06T10:09:47Z</time>
      </trkpt>
      <trkpt lat="45.63171" lon="6.67039">
        <ele>1984.78</ele>
        <time>2018-02-06T10:10:01Z</time>
      </trkpt>
      <trkpt lat="45.63166" lon="6.67038">
        <ele>1985.74</ele>
        <time>2018-02-06T10:10:15Z</time>
      </trkpt>
      <trkpt lat="45.63168" lon="6.6703">
        <ele>1986.22</ele>
        <time>2018-02-06T10:10:31Z</time>
      </trkpt>
      <trkpt lat="45.63173" lon="6.67022">
        <ele>1987.18</ele>
        <time>2018-02-06T10:10:45Z</time>
      </trkpt>
      <trkpt lat="45.63177" lon="6.67016">
        <ele>1989.1</ele>
        <time>2018-02-06T10:10:58Z</time>
      </trkpt>
      <trkpt lat="45.63183" lon="6.6702">
        <ele>1990.55</ele>
        <time>2018-02-06T10:11:11Z</time>
      </trkpt>
      <trkpt lat="45.63189" lon="6.6702">
        <ele>1991.99</ele>
        <time>2018-02-06T10:11:24Z</time>
      </trkpt>
      <trkpt lat="45.63195" lon="6.67022">
        <ele>1993.43</ele>
        <time>2018-02-06T10:11:38Z</time>
      </trkpt>
      <trkpt lat="45.63194" lon="6.6702">
        <ele>1993.91</ele>
        <time>2018-02-06T10:11:52Z</time>
      </trkpt>
      <trkpt lat="45.63192" lon="6.67011">
        <ele>1994.87</ele>
        <time>2018-02-06T10:12:07Z</time>
      </trkpt>
      <trkpt lat="45.63186" lon="6.67004">
        <ele>1995.83</ele>
        <time>2018-02-06T10:12:22Z</time>
      </trkpt>
      <trkpt lat="45.63184" lon="6.66996">
        <ele>1999.2</ele>
        <time>2018-02-06T10:12:37Z</time>
      </trkpt>
      <trkpt lat="45.63179" lon="6.66991">
        <ele>1998.72</ele>
        <time>2018-02-06T10:12:52Z</time>
      </trkpt>
      <trkpt lat="45.63173" lon="6.66992">
        <ele>2000.16</ele>
        <time>2018-02-06T10:13:07Z</time>
      </trkpt>
      <trkpt lat="45.63172" lon="6.66989">
        <ele>2003.04</ele>
        <time>2018-02-06T10:13:11Z</time>
      </trkpt>
      <trkpt lat="45.63176" lon="6.66986">
        <ele>2003.52</ele>
        <time>2018-02-06T10:13:30Z</time>
      </trkpt>
      <trkpt lat="45.63177" lon="6.66982">
        <ele>2004.49</ele>
        <time>2018-02-06T10:13:36Z</time>
      </trkpt>
      <trkpt lat="45.63181" lon="6.66976">
        <ele>2005.93</ele>
        <time>2018-02-06T10:13:49Z</time>
      </trkpt>
      <trkpt lat="45.63187" lon="6.66975">
        <ele>2007.37</ele>
        <time>2018-02-06T10:14:04Z</time>
      </trkpt>
      <trkpt lat="45.63192" lon="6.66979">
        <ele>2008.33</ele>
        <time>2018-02-06T10:14:18Z</time>
      </trkpt>
      <trkpt lat="45.63189" lon="6.66972">
        <ele>2009.29</ele>
        <time>2018-02-06T10:14:31Z</time>
      </trkpt>
      <trkpt lat="45.63187" lon="6.66965">
        <ele>2011.22</ele>
        <time>2018-02-06T10:14:44Z</time>
      </trkpt>
      <trkpt lat="45.63184" lon="6.66956">
        <ele>2012.18</ele>
        <time>2018-02-06T10:14:57Z</time>
      </trkpt>
      <trkpt lat="45.6318" lon="6.66953">
        <ele>2015.54</ele>
        <time>2018-02-06T10:15:11Z</time>
      </trkpt>
      <trkpt lat="45.63179" lon="6.66953">
        <ele>2015.06</ele>
        <time>2018-02-06T10:15:12Z</time>
      </trkpt>
      <trkpt lat="45.63177" lon="6.6695">
        <ele>2016.5</ele>
        <time>2018-02-06T10:15:19Z</time>
      </trkpt>
      <trkpt lat="45.63176" lon="6.66942">
        <ele>2017.94</ele>
        <time>2018-02-06T10:15:31Z</time>
      </trkpt>
      <trkpt lat="45.63176" lon="6.66936">
        <ele>2019.39</ele>
        <time>2018-02-06T10:15:43Z</time>
      </trkpt>
      <trkpt lat="45.63174" lon="6.6693">
        <ele>2019.87</ele>
        <time>2018-02-06T10:15:55Z</time>
      </trkpt>
      <trkpt lat="45.63173" lon="6.66923">
        <ele>2021.31</ele>
        <time>2018-02-06T10:16:07Z</time>
      </trkpt>
      <trkpt lat="45.6317" lon="6.66915">
        <ele>2022.27</ele>
        <time>2018-02-06T10:16:20Z</time>
      </trkpt>
      <trkpt lat="45.63169" lon="6.66914">
        <ele>2023.23</ele>
        <time>2018-02-06T10:16:22Z</time>
      </trkpt>
      <trkpt lat="45.6317" lon="6.66907">
        <ele>2024.67</ele>
        <time>2018-02-06T10:16:36Z</time>
      </trkpt>
      <trkpt lat="45.63169" lon="6.66901">
        <ele>2026.12</ele>
        <time>2018-02-06T10:16:49Z</time>
      </trkpt>
      <trkpt lat="45.63173" lon="6.66893">
        <ele>2028.52</ele>
        <time>2018-02-06T10:17:03Z</time>
      </trkpt>
      <trkpt lat="45.63179" lon="6.66899">
        <ele>2031.4</ele>
        <time>2018-02-06T10:17:13Z</time>
      </trkpt>
      <trkpt lat="45.63188" lon="6.66906">
        <ele>2032.36</ele>
        <time>2018-02-06T10:17:27Z</time>
      </trkpt>
      <trkpt lat="45.63196" lon="6.66914">
        <ele>2031.88</ele>
        <time>2018-02-06T10:17:41Z</time>
      </trkpt>
      <trkpt lat="45.63199" lon="6.66918">
        <ele>2031.4</ele>
        <time>2018-02-06T10:17:47Z</time>
      </trkpt>
      <trkpt lat="45.63207" lon="6.66924">
        <ele>2031.88</ele>
        <time>2018-02-06T10:17:58Z</time>
      </trkpt>
      <trkpt lat="45.6321" lon="6.66925">
        <ele>2032.36</ele>
        <time>2018-02-06T10:18:03Z</time>
      </trkpt>
      <trkpt lat="45.63216" lon="6.66917">
        <ele>2034.77</ele>
        <time>2018-02-06T10:18:16Z</time>
      </trkpt>
      <trkpt lat="45.63216" lon="6.66916">
        <ele>2033.33</ele>
        <time>2018-02-06T10:18:34Z</time>
      </trkpt>
      <trkpt lat="45.63215" lon="6.66916">
        <ele>2031.4</ele>
        <time>2018-02-06T10:18:43Z</time>
      </trkpt>
      <trkpt lat="45.63215" lon="6.66914">
        <ele>2029.96</ele>
        <time>2018-02-06T10:19:03Z</time>
      </trkpt>
      <trkpt lat="45.63217" lon="6.66916">
        <ele>2030.92</ele>
        <time>2018-02-06T10:19:10Z</time>
      </trkpt>
      <trkpt lat="45.63219" lon="6.6691">
        <ele>2027.56</ele>
        <time>2018-02-06T10:19:21Z</time>
      </trkpt>
      <trkpt lat="45.63215" lon="6.66913">
        <ele>2025.64</ele>
        <time>2018-02-06T10:19:35Z</time>
      </trkpt>
      <trkpt lat="45.63208" lon="6.66923">
        <ele>2023.71</ele>
        <time>2018-02-06T10:20:10Z</time>
      </trkpt>
    </trkseg>
  </trk>
</gpx>